<?xml version="1.0" encoding="UTF-8" standalone="no" ?>
<gpx xmlns="http://www.topografix.com/GPX/1/1" xmlns:xsi="http://www.w3.org/2001/XMLSchema-instance" xsi:schemaLocation="http://www.topografix.com/GPX/1/1 http://www.topografix.com/GPX/1/1/gpx.xsd" version="1.1" creator="VisuGPX - https://www.visugpx.com">
  <metadata>
    <name>Ensemble des parcours VTT</name>
    <desc><![CDATA[Ensemble des parcours disponible à la base de plein air du LAmbon.]]></desc>
  </metadata>
  <trk>
    <name><![CDATA[20180720083652-PCCTw]]></name>
    <trkseg>
      <trkpt lat="46.30058" lon="-0.20881">
        <ele>122</ele>
        <time>2009-03-19T08:54:11Z</time>
      </trkpt>
      <trkpt lat="46.30058" lon="-0.20881">
        <ele>122</ele>
        <time>2009-03-19T08:54:16Z</time>
      </trkpt>
      <trkpt lat="46.30058" lon="-0.20881">
        <ele>122</ele>
        <time>2009-03-19T08:54:21Z</time>
      </trkpt>
      <trkpt lat="46.30059" lon="-0.20882">
        <ele>122</ele>
        <time>2009-03-19T08:54:26Z</time>
      </trkpt>
      <trkpt lat="46.30059" lon="-0.20882">
        <ele>122</ele>
        <time>2009-03-19T08:54:31Z</time>
      </trkpt>
      <trkpt lat="46.30059" lon="-0.20881">
        <ele>122</ele>
        <time>2009-03-19T08:54:36Z</time>
      </trkpt>
      <trkpt lat="46.30059" lon="-0.20881">
        <ele>122</ele>
        <time>2009-03-19T08:54:41Z</time>
      </trkpt>
      <trkpt lat="46.30059" lon="-0.20881">
        <ele>122</ele>
        <time>2009-03-19T08:54:46Z</time>
      </trkpt>
      <trkpt lat="46.30059" lon="-0.20881">
        <ele>122</ele>
        <time>2009-03-19T08:54:51Z</time>
      </trkpt>
      <trkpt lat="46.30059" lon="-0.20881">
        <ele>122</ele>
        <time>2009-03-19T08:54:56Z</time>
      </trkpt>
      <trkpt lat="46.30059" lon="-0.20881">
        <ele>122</ele>
        <time>2009-03-19T08:55:01Z</time>
      </trkpt>
      <trkpt lat="46.30059" lon="-0.20882">
        <ele>122</ele>
        <time>2009-03-19T08:55:06Z</time>
      </trkpt>
      <trkpt lat="46.3006" lon="-0.20883">
        <ele>123</ele>
        <time>2009-03-19T08:55:11Z</time>
      </trkpt>
      <trkpt lat="46.30061" lon="-0.20885">
        <ele>123</ele>
        <time>2009-03-19T08:55:16Z</time>
      </trkpt>
      <trkpt lat="46.30061" lon="-0.20886">
        <ele>123</ele>
        <time>2009-03-19T08:55:21Z</time>
      </trkpt>
      <trkpt lat="46.30061" lon="-0.20885">
        <ele>123</ele>
        <time>2009-03-19T08:55:26Z</time>
      </trkpt>
      <trkpt lat="46.30061" lon="-0.20885">
        <ele>123</ele>
        <time>2009-03-19T08:55:31Z</time>
      </trkpt>
      <trkpt lat="46.30061" lon="-0.20885">
        <ele>123</ele>
        <time>2009-03-19T08:55:36Z</time>
      </trkpt>
      <trkpt lat="46.30061" lon="-0.20886">
        <ele>123</ele>
        <time>2009-03-19T08:55:41Z</time>
      </trkpt>
      <trkpt lat="46.30061" lon="-0.20886">
        <ele>123</ele>
        <time>2009-03-19T08:55:46Z</time>
      </trkpt>
      <trkpt lat="46.30056" lon="-0.20893">
        <ele>123</ele>
        <time>2009-03-19T08:55:51Z</time>
      </trkpt>
      <trkpt lat="46.30052" lon="-0.20905">
        <ele>123</ele>
        <time>2009-03-19T08:55:56Z</time>
      </trkpt>
      <trkpt lat="46.30047" lon="-0.20919">
        <ele>125</ele>
        <time>2009-03-19T08:56:01Z</time>
      </trkpt>
      <trkpt lat="46.30041" lon="-0.2093">
        <ele>125</ele>
        <time>2009-03-19T08:56:06Z</time>
      </trkpt>
      <trkpt lat="46.30032" lon="-0.20945">
        <ele>125</ele>
        <time>2009-03-19T08:56:11Z</time>
      </trkpt>
      <trkpt lat="46.30029" lon="-0.20962">
        <ele>125</ele>
        <time>2009-03-19T08:56:16Z</time>
      </trkpt>
      <trkpt lat="46.3002" lon="-0.20978">
        <ele>125</ele>
        <time>2009-03-19T08:56:21Z</time>
      </trkpt>
      <trkpt lat="46.30008" lon="-0.20999">
        <ele>123</ele>
        <time>2009-03-19T08:56:26Z</time>
      </trkpt>
      <trkpt lat="46.29996" lon="-0.21024">
        <ele>121</ele>
        <time>2009-03-19T08:56:31Z</time>
      </trkpt>
      <trkpt lat="46.29982" lon="-0.21051">
        <ele>122</ele>
        <time>2009-03-19T08:56:36Z</time>
      </trkpt>
      <trkpt lat="46.29969" lon="-0.21078">
        <ele>122</ele>
        <time>2009-03-19T08:56:41Z</time>
      </trkpt>
      <trkpt lat="46.29952" lon="-0.21107">
        <ele>126</ele>
        <time>2009-03-19T08:56:46Z</time>
      </trkpt>
      <trkpt lat="46.29938" lon="-0.21137">
        <ele>126</ele>
        <time>2009-03-19T08:56:51Z</time>
      </trkpt>
      <trkpt lat="46.29929" lon="-0.21169">
        <ele>128</ele>
        <time>2009-03-19T08:56:56Z</time>
      </trkpt>
      <trkpt lat="46.29927" lon="-0.21203">
        <ele>130</ele>
        <time>2009-03-19T08:57:01Z</time>
      </trkpt>
      <trkpt lat="46.29941" lon="-0.21224">
        <ele>131</ele>
        <time>2009-03-19T08:57:06Z</time>
      </trkpt>
      <trkpt lat="46.29955" lon="-0.21245">
        <ele>131</ele>
        <time>2009-03-19T08:57:11Z</time>
      </trkpt>
      <trkpt lat="46.29965" lon="-0.21266">
        <ele>133</ele>
        <time>2009-03-19T08:57:16Z</time>
      </trkpt>
      <trkpt lat="46.29972" lon="-0.21289">
        <ele>134</ele>
        <time>2009-03-19T08:57:21Z</time>
      </trkpt>
      <trkpt lat="46.29979" lon="-0.21311">
        <ele>134</ele>
        <time>2009-03-19T08:57:26Z</time>
      </trkpt>
      <trkpt lat="46.29991" lon="-0.21324">
        <ele>136</ele>
        <time>2009-03-19T08:57:31Z</time>
      </trkpt>
      <trkpt lat="46.29999" lon="-0.21336">
        <ele>138</ele>
        <time>2009-03-19T08:57:36Z</time>
      </trkpt>
      <trkpt lat="46.29987" lon="-0.2135">
        <ele>136</ele>
        <time>2009-03-19T08:57:41Z</time>
      </trkpt>
      <trkpt lat="46.29962" lon="-0.21366">
        <ele>134</ele>
        <time>2009-03-19T08:57:46Z</time>
      </trkpt>
      <trkpt lat="46.29953" lon="-0.21409">
        <ele>134</ele>
        <time>2009-03-19T08:57:51Z</time>
      </trkpt>
      <trkpt lat="46.2995" lon="-0.21451">
        <ele>134</ele>
        <time>2009-03-19T08:57:56Z</time>
      </trkpt>
      <trkpt lat="46.2995" lon="-0.21488">
        <ele>134</ele>
        <time>2009-03-19T08:58:01Z</time>
      </trkpt>
      <trkpt lat="46.2995" lon="-0.21523">
        <ele>135</ele>
        <time>2009-03-19T08:58:06Z</time>
      </trkpt>
      <trkpt lat="46.29949" lon="-0.21555">
        <ele>135</ele>
        <time>2009-03-19T08:58:11Z</time>
      </trkpt>
      <trkpt lat="46.29948" lon="-0.21588">
        <ele>136</ele>
        <time>2009-03-19T08:58:16Z</time>
      </trkpt>
      <trkpt lat="46.29947" lon="-0.21619">
        <ele>137</ele>
        <time>2009-03-19T08:58:21Z</time>
      </trkpt>
      <trkpt lat="46.29943" lon="-0.21652">
        <ele>137</ele>
        <time>2009-03-19T08:58:26Z</time>
      </trkpt>
      <trkpt lat="46.29938" lon="-0.21685">
        <ele>138</ele>
        <time>2009-03-19T08:58:31Z</time>
      </trkpt>
      <trkpt lat="46.29932" lon="-0.21717">
        <ele>138</ele>
        <time>2009-03-19T08:58:36Z</time>
      </trkpt>
      <trkpt lat="46.29935" lon="-0.21739">
        <ele>139</ele>
        <time>2009-03-19T08:58:41Z</time>
      </trkpt>
      <trkpt lat="46.29951" lon="-0.21734">
        <ele>139</ele>
        <time>2009-03-19T08:58:46Z</time>
      </trkpt>
      <trkpt lat="46.29967" lon="-0.21723">
        <ele>139</ele>
        <time>2009-03-19T08:58:51Z</time>
      </trkpt>
      <trkpt lat="46.29982" lon="-0.21717">
        <ele>140</ele>
        <time>2009-03-19T08:58:56Z</time>
      </trkpt>
      <trkpt lat="46.29998" lon="-0.2171">
        <ele>140</ele>
        <time>2009-03-19T08:59:01Z</time>
      </trkpt>
      <trkpt lat="46.30013" lon="-0.21703">
        <ele>142</ele>
        <time>2009-03-19T08:59:06Z</time>
      </trkpt>
      <trkpt lat="46.30031" lon="-0.21696">
        <ele>142</ele>
        <time>2009-03-19T08:59:11Z</time>
      </trkpt>
      <trkpt lat="46.30048" lon="-0.21685">
        <ele>142</ele>
        <time>2009-03-19T08:59:16Z</time>
      </trkpt>
      <trkpt lat="46.30066" lon="-0.21671">
        <ele>142</ele>
        <time>2009-03-19T08:59:21Z</time>
      </trkpt>
      <trkpt lat="46.30084" lon="-0.21658">
        <ele>143</ele>
        <time>2009-03-19T08:59:26Z</time>
      </trkpt>
      <trkpt lat="46.30102" lon="-0.21644">
        <ele>143</ele>
        <time>2009-03-19T08:59:31Z</time>
      </trkpt>
      <trkpt lat="46.30123" lon="-0.21635">
        <ele>143</ele>
        <time>2009-03-19T08:59:36Z</time>
      </trkpt>
      <trkpt lat="46.30149" lon="-0.21652">
        <ele>142</ele>
        <time>2009-03-19T08:59:41Z</time>
      </trkpt>
      <trkpt lat="46.30175" lon="-0.21677">
        <ele>141</ele>
        <time>2009-03-19T08:59:46Z</time>
      </trkpt>
      <trkpt lat="46.302" lon="-0.21701">
        <ele>141</ele>
        <time>2009-03-19T08:59:51Z</time>
      </trkpt>
      <trkpt lat="46.30226" lon="-0.21725">
        <ele>141</ele>
        <time>2009-03-19T08:59:56Z</time>
      </trkpt>
      <trkpt lat="46.30251" lon="-0.21758">
        <ele>141</ele>
        <time>2009-03-19T09:00:01Z</time>
      </trkpt>
      <trkpt lat="46.30272" lon="-0.21793">
        <ele>141</ele>
        <time>2009-03-19T09:00:06Z</time>
      </trkpt>
      <trkpt lat="46.3029" lon="-0.21833">
        <ele>140</ele>
        <time>2009-03-19T09:00:11Z</time>
      </trkpt>
      <trkpt lat="46.30306" lon="-0.21871">
        <ele>140</ele>
        <time>2009-03-19T09:00:16Z</time>
      </trkpt>
      <trkpt lat="46.3032" lon="-0.21911">
        <ele>140</ele>
        <time>2009-03-19T09:00:21Z</time>
      </trkpt>
      <trkpt lat="46.30333" lon="-0.21952">
        <ele>139</ele>
        <time>2009-03-19T09:00:26Z</time>
      </trkpt>
      <trkpt lat="46.30329" lon="-0.21994">
        <ele>139</ele>
        <time>2009-03-19T09:00:31Z</time>
      </trkpt>
      <trkpt lat="46.30322" lon="-0.2204">
        <ele>137</ele>
        <time>2009-03-19T09:00:36Z</time>
      </trkpt>
      <trkpt lat="46.30323" lon="-0.22084">
        <ele>137</ele>
        <time>2009-03-19T09:00:41Z</time>
      </trkpt>
      <trkpt lat="46.30348" lon="-0.22089">
        <ele>138</ele>
        <time>2009-03-19T09:00:46Z</time>
      </trkpt>
      <trkpt lat="46.30371" lon="-0.22087">
        <ele>138</ele>
        <time>2009-03-19T09:00:51Z</time>
      </trkpt>
      <trkpt lat="46.30395" lon="-0.22088">
        <ele>139</ele>
        <time>2009-03-19T09:00:56Z</time>
      </trkpt>
      <trkpt lat="46.30416" lon="-0.2209">
        <ele>140</ele>
        <time>2009-03-19T09:01:01Z</time>
      </trkpt>
      <trkpt lat="46.30431" lon="-0.22094">
        <ele>139</ele>
        <time>2009-03-19T09:01:06Z</time>
      </trkpt>
      <trkpt lat="46.30443" lon="-0.22104">
        <ele>138</ele>
        <time>2009-03-19T09:01:11Z</time>
      </trkpt>
      <trkpt lat="46.30466" lon="-0.22113">
        <ele>138</ele>
        <time>2009-03-19T09:01:16Z</time>
      </trkpt>
      <trkpt lat="46.30491" lon="-0.22121">
        <ele>138</ele>
        <time>2009-03-19T09:01:21Z</time>
      </trkpt>
      <trkpt lat="46.30519" lon="-0.22129">
        <ele>135</ele>
        <time>2009-03-19T09:01:26Z</time>
      </trkpt>
      <trkpt lat="46.30548" lon="-0.22133">
        <ele>135</ele>
        <time>2009-03-19T09:01:31Z</time>
      </trkpt>
      <trkpt lat="46.30563" lon="-0.22106">
        <ele>135</ele>
        <time>2009-03-19T09:01:36Z</time>
      </trkpt>
      <trkpt lat="46.30591" lon="-0.22108">
        <ele>133</ele>
        <time>2009-03-19T09:01:41Z</time>
      </trkpt>
      <trkpt lat="46.30624" lon="-0.22113">
        <ele>132</ele>
        <time>2009-03-19T09:01:46Z</time>
      </trkpt>
      <trkpt lat="46.30657" lon="-0.22112">
        <ele>132</ele>
        <time>2009-03-19T09:01:51Z</time>
      </trkpt>
      <trkpt lat="46.30684" lon="-0.22113">
        <ele>133</ele>
        <time>2009-03-19T09:01:56Z</time>
      </trkpt>
      <trkpt lat="46.30705" lon="-0.22131">
        <ele>133</ele>
        <time>2009-03-19T09:02:01Z</time>
      </trkpt>
      <trkpt lat="46.30722" lon="-0.22137">
        <ele>134</ele>
        <time>2009-03-19T09:02:06Z</time>
      </trkpt>
      <trkpt lat="46.3074" lon="-0.22133">
        <ele>134</ele>
        <time>2009-03-19T09:02:11Z</time>
      </trkpt>
      <trkpt lat="46.30756" lon="-0.22129">
        <ele>137</ele>
        <time>2009-03-19T09:02:16Z</time>
      </trkpt>
      <trkpt lat="46.30771" lon="-0.22126">
        <ele>138</ele>
        <time>2009-03-19T09:02:21Z</time>
      </trkpt>
      <trkpt lat="46.30789" lon="-0.22125">
        <ele>138</ele>
        <time>2009-03-19T09:02:26Z</time>
      </trkpt>
      <trkpt lat="46.30806" lon="-0.22127">
        <ele>139</ele>
        <time>2009-03-19T09:02:31Z</time>
      </trkpt>
      <trkpt lat="46.30824" lon="-0.22129">
        <ele>139</ele>
        <time>2009-03-19T09:02:36Z</time>
      </trkpt>
      <trkpt lat="46.30841" lon="-0.22129">
        <ele>142</ele>
        <time>2009-03-19T09:02:41Z</time>
      </trkpt>
      <trkpt lat="46.30859" lon="-0.22128">
        <ele>142</ele>
        <time>2009-03-19T09:02:46Z</time>
      </trkpt>
      <trkpt lat="46.30877" lon="-0.22128">
        <ele>142</ele>
        <time>2009-03-19T09:02:51Z</time>
      </trkpt>
      <trkpt lat="46.30895" lon="-0.22126">
        <ele>143</ele>
        <time>2009-03-19T09:02:56Z</time>
      </trkpt>
      <trkpt lat="46.30915" lon="-0.22121">
        <ele>143</ele>
        <time>2009-03-19T09:03:01Z</time>
      </trkpt>
      <trkpt lat="46.30936" lon="-0.22113">
        <ele>144</ele>
        <time>2009-03-19T09:03:06Z</time>
      </trkpt>
      <trkpt lat="46.30956" lon="-0.22102">
        <ele>144</ele>
        <time>2009-03-19T09:03:11Z</time>
      </trkpt>
      <trkpt lat="46.30976" lon="-0.22088">
        <ele>145</ele>
        <time>2009-03-19T09:03:16Z</time>
      </trkpt>
      <trkpt lat="46.30996" lon="-0.22071">
        <ele>146</ele>
        <time>2009-03-19T09:03:21Z</time>
      </trkpt>
      <trkpt lat="46.31016" lon="-0.22052">
        <ele>146</ele>
        <time>2009-03-19T09:03:26Z</time>
      </trkpt>
      <trkpt lat="46.31038" lon="-0.22028">
        <ele>145</ele>
        <time>2009-03-19T09:03:31Z</time>
      </trkpt>
      <trkpt lat="46.31061" lon="-0.22004">
        <ele>145</ele>
        <time>2009-03-19T09:03:36Z</time>
      </trkpt>
      <trkpt lat="46.31082" lon="-0.21979">
        <ele>146</ele>
        <time>2009-03-19T09:03:41Z</time>
      </trkpt>
      <trkpt lat="46.31103" lon="-0.21954">
        <ele>145</ele>
        <time>2009-03-19T09:03:46Z</time>
      </trkpt>
      <trkpt lat="46.31125" lon="-0.21929">
        <ele>145</ele>
        <time>2009-03-19T09:03:51Z</time>
      </trkpt>
      <trkpt lat="46.31145" lon="-0.21905">
        <ele>145</ele>
        <time>2009-03-19T09:03:56Z</time>
      </trkpt>
      <trkpt lat="46.31164" lon="-0.21878">
        <ele>145</ele>
        <time>2009-03-19T09:04:01Z</time>
      </trkpt>
      <trkpt lat="46.31181" lon="-0.21849">
        <ele>144</ele>
        <time>2009-03-19T09:04:06Z</time>
      </trkpt>
      <trkpt lat="46.31195" lon="-0.21817">
        <ele>144</ele>
        <time>2009-03-19T09:04:11Z</time>
      </trkpt>
      <trkpt lat="46.31211" lon="-0.21783">
        <ele>143</ele>
        <time>2009-03-19T09:04:16Z</time>
      </trkpt>
      <trkpt lat="46.31229" lon="-0.21751">
        <ele>143</ele>
        <time>2009-03-19T09:04:21Z</time>
      </trkpt>
      <trkpt lat="46.3125" lon="-0.21722">
        <ele>144</ele>
        <time>2009-03-19T09:04:26Z</time>
      </trkpt>
      <trkpt lat="46.31266" lon="-0.21693">
        <ele>142</ele>
        <time>2009-03-19T09:04:31Z</time>
      </trkpt>
      <trkpt lat="46.31281" lon="-0.21663">
        <ele>142</ele>
        <time>2009-03-19T09:04:36Z</time>
      </trkpt>
      <trkpt lat="46.31296" lon="-0.21636">
        <ele>142</ele>
        <time>2009-03-19T09:04:41Z</time>
      </trkpt>
      <trkpt lat="46.31307" lon="-0.21614">
        <ele>142</ele>
        <time>2009-03-19T09:04:46Z</time>
      </trkpt>
      <trkpt lat="46.31317" lon="-0.21596">
        <ele>142</ele>
        <time>2009-03-19T09:04:51Z</time>
      </trkpt>
      <trkpt lat="46.31332" lon="-0.21598">
        <ele>142</ele>
        <time>2009-03-19T09:04:56Z</time>
      </trkpt>
      <trkpt lat="46.31352" lon="-0.21606">
        <ele>142</ele>
        <time>2009-03-19T09:05:01Z</time>
      </trkpt>
      <trkpt lat="46.31372" lon="-0.21614">
        <ele>142</ele>
        <time>2009-03-19T09:05:06Z</time>
      </trkpt>
      <trkpt lat="46.31385" lon="-0.21593">
        <ele>142</ele>
        <time>2009-03-19T09:05:11Z</time>
      </trkpt>
      <trkpt lat="46.31391" lon="-0.21558">
        <ele>142</ele>
        <time>2009-03-19T09:05:16Z</time>
      </trkpt>
      <trkpt lat="46.31402" lon="-0.21526">
        <ele>142</ele>
        <time>2009-03-19T09:05:21Z</time>
      </trkpt>
      <trkpt lat="46.31414" lon="-0.21499">
        <ele>143</ele>
        <time>2009-03-19T09:05:26Z</time>
      </trkpt>
      <trkpt lat="46.31428" lon="-0.21484">
        <ele>144</ele>
        <time>2009-03-19T09:05:31Z</time>
      </trkpt>
      <trkpt lat="46.31446" lon="-0.21476">
        <ele>144</ele>
        <time>2009-03-19T09:05:36Z</time>
      </trkpt>
      <trkpt lat="46.31464" lon="-0.21465">
        <ele>144</ele>
        <time>2009-03-19T09:05:41Z</time>
      </trkpt>
      <trkpt lat="46.31481" lon="-0.21453">
        <ele>144</ele>
        <time>2009-03-19T09:05:46Z</time>
      </trkpt>
      <trkpt lat="46.31498" lon="-0.21441">
        <ele>145</ele>
        <time>2009-03-19T09:05:51Z</time>
      </trkpt>
      <trkpt lat="46.31515" lon="-0.21427">
        <ele>146</ele>
        <time>2009-03-19T09:05:56Z</time>
      </trkpt>
      <trkpt lat="46.31532" lon="-0.21414">
        <ele>146</ele>
        <time>2009-03-19T09:06:01Z</time>
      </trkpt>
      <trkpt lat="46.3155" lon="-0.21401">
        <ele>147</ele>
        <time>2009-03-19T09:06:06Z</time>
      </trkpt>
      <trkpt lat="46.31568" lon="-0.21387">
        <ele>147</ele>
        <time>2009-03-19T09:06:11Z</time>
      </trkpt>
      <trkpt lat="46.31585" lon="-0.21372">
        <ele>148</ele>
        <time>2009-03-19T09:06:16Z</time>
      </trkpt>
      <trkpt lat="46.31602" lon="-0.21369">
        <ele>148</ele>
        <time>2009-03-19T09:06:21Z</time>
      </trkpt>
      <trkpt lat="46.31608" lon="-0.21395">
        <ele>148</ele>
        <time>2009-03-19T09:06:26Z</time>
      </trkpt>
      <trkpt lat="46.31611" lon="-0.21421">
        <ele>149</ele>
        <time>2009-03-19T09:06:31Z</time>
      </trkpt>
      <trkpt lat="46.31616" lon="-0.21446">
        <ele>149</ele>
        <time>2009-03-19T09:06:36Z</time>
      </trkpt>
      <trkpt lat="46.31622" lon="-0.21473">
        <ele>149</ele>
        <time>2009-03-19T09:06:41Z</time>
      </trkpt>
      <trkpt lat="46.3163" lon="-0.21499">
        <ele>149</ele>
        <time>2009-03-19T09:06:46Z</time>
      </trkpt>
      <trkpt lat="46.31639" lon="-0.21524">
        <ele>151</ele>
        <time>2009-03-19T09:06:51Z</time>
      </trkpt>
      <trkpt lat="46.31646" lon="-0.21548">
        <ele>152</ele>
        <time>2009-03-19T09:06:56Z</time>
      </trkpt>
      <trkpt lat="46.31655" lon="-0.2157">
        <ele>153</ele>
        <time>2009-03-19T09:07:01Z</time>
      </trkpt>
      <trkpt lat="46.31662" lon="-0.21593">
        <ele>154</ele>
        <time>2009-03-19T09:07:06Z</time>
      </trkpt>
      <trkpt lat="46.31669" lon="-0.21618">
        <ele>156</ele>
        <time>2009-03-19T09:07:11Z</time>
      </trkpt>
      <trkpt lat="46.31672" lon="-0.21643">
        <ele>156</ele>
        <time>2009-03-19T09:07:16Z</time>
      </trkpt>
      <trkpt lat="46.31681" lon="-0.21654">
        <ele>156</ele>
        <time>2009-03-19T09:07:21Z</time>
      </trkpt>
      <trkpt lat="46.31694" lon="-0.21642">
        <ele>157</ele>
        <time>2009-03-19T09:07:26Z</time>
      </trkpt>
      <trkpt lat="46.31708" lon="-0.21654">
        <ele>157</ele>
        <time>2009-03-19T09:07:31Z</time>
      </trkpt>
      <trkpt lat="46.31719" lon="-0.21676">
        <ele>157</ele>
        <time>2009-03-19T09:07:36Z</time>
      </trkpt>
      <trkpt lat="46.3173" lon="-0.21701">
        <ele>157</ele>
        <time>2009-03-19T09:07:41Z</time>
      </trkpt>
      <trkpt lat="46.31747" lon="-0.21722">
        <ele>157</ele>
        <time>2009-03-19T09:07:46Z</time>
      </trkpt>
      <trkpt lat="46.3177" lon="-0.21734">
        <ele>156</ele>
        <time>2009-03-19T09:07:51Z</time>
      </trkpt>
      <trkpt lat="46.31792" lon="-0.21749">
        <ele>156</ele>
        <time>2009-03-19T09:07:56Z</time>
      </trkpt>
      <trkpt lat="46.31815" lon="-0.21761">
        <ele>154</ele>
        <time>2009-03-19T09:08:01Z</time>
      </trkpt>
      <trkpt lat="46.31835" lon="-0.21775">
        <ele>152</ele>
        <time>2009-03-19T09:08:06Z</time>
      </trkpt>
      <trkpt lat="46.31834" lon="-0.21814">
        <ele>151</ele>
        <time>2009-03-19T09:08:11Z</time>
      </trkpt>
      <trkpt lat="46.31844" lon="-0.21826">
        <ele>151</ele>
        <time>2009-03-19T09:08:16Z</time>
      </trkpt>
      <trkpt lat="46.31866" lon="-0.2181">
        <ele>150</ele>
        <time>2009-03-19T09:08:21Z</time>
      </trkpt>
      <trkpt lat="46.31893" lon="-0.21792">
        <ele>150</ele>
        <time>2009-03-19T09:08:26Z</time>
      </trkpt>
      <trkpt lat="46.31922" lon="-0.21785">
        <ele>148</ele>
        <time>2009-03-19T09:08:31Z</time>
      </trkpt>
      <trkpt lat="46.31939" lon="-0.21814">
        <ele>147</ele>
        <time>2009-03-19T09:08:36Z</time>
      </trkpt>
      <trkpt lat="46.31955" lon="-0.21813">
        <ele>147</ele>
        <time>2009-03-19T09:08:41Z</time>
      </trkpt>
      <trkpt lat="46.3197" lon="-0.21788">
        <ele>147</ele>
        <time>2009-03-19T09:08:46Z</time>
      </trkpt>
      <trkpt lat="46.31978" lon="-0.21754">
        <ele>147</ele>
        <time>2009-03-19T09:08:51Z</time>
      </trkpt>
      <trkpt lat="46.31984" lon="-0.2172">
        <ele>148</ele>
        <time>2009-03-19T09:08:56Z</time>
      </trkpt>
      <trkpt lat="46.31989" lon="-0.21687">
        <ele>148</ele>
        <time>2009-03-19T09:09:01Z</time>
      </trkpt>
      <trkpt lat="46.31998" lon="-0.21654">
        <ele>148</ele>
        <time>2009-03-19T09:09:06Z</time>
      </trkpt>
      <trkpt lat="46.3201" lon="-0.21621">
        <ele>148</ele>
        <time>2009-03-19T09:09:11Z</time>
      </trkpt>
      <trkpt lat="46.32028" lon="-0.21598">
        <ele>149</ele>
        <time>2009-03-19T09:09:16Z</time>
      </trkpt>
      <trkpt lat="46.32049" lon="-0.21578">
        <ele>149</ele>
        <time>2009-03-19T09:09:21Z</time>
      </trkpt>
      <trkpt lat="46.3207" lon="-0.21558">
        <ele>150</ele>
        <time>2009-03-19T09:09:26Z</time>
      </trkpt>
      <trkpt lat="46.32091" lon="-0.21538">
        <ele>150</ele>
        <time>2009-03-19T09:09:31Z</time>
      </trkpt>
      <trkpt lat="46.32109" lon="-0.21518">
        <ele>151</ele>
        <time>2009-03-19T09:09:36Z</time>
      </trkpt>
      <trkpt lat="46.32121" lon="-0.21504">
        <ele>151</ele>
        <time>2009-03-19T09:09:41Z</time>
      </trkpt>
      <trkpt lat="46.32123" lon="-0.21502">
        <ele>151</ele>
        <time>2009-03-19T09:09:46Z</time>
      </trkpt>
      <trkpt lat="46.32123" lon="-0.21503">
        <ele>151</ele>
        <time>2009-03-19T09:09:51Z</time>
      </trkpt>
      <trkpt lat="46.32123" lon="-0.21503">
        <ele>151</ele>
        <time>2009-03-19T09:09:56Z</time>
      </trkpt>
      <trkpt lat="46.32123" lon="-0.21503">
        <ele>151</ele>
        <time>2009-03-19T09:10:01Z</time>
      </trkpt>
      <trkpt lat="46.32123" lon="-0.21503">
        <ele>151</ele>
        <time>2009-03-19T09:10:06Z</time>
      </trkpt>
      <trkpt lat="46.32123" lon="-0.21503">
        <ele>151</ele>
        <time>2009-03-19T09:10:11Z</time>
      </trkpt>
      <trkpt lat="46.32123" lon="-0.21503">
        <ele>151</ele>
        <time>2009-03-19T09:10:16Z</time>
      </trkpt>
      <trkpt lat="46.32123" lon="-0.21502">
        <ele>151</ele>
        <time>2009-03-19T09:10:21Z</time>
      </trkpt>
      <trkpt lat="46.32122" lon="-0.21499">
        <ele>151</ele>
        <time>2009-03-19T09:10:26Z</time>
      </trkpt>
      <trkpt lat="46.32122" lon="-0.21499">
        <ele>151</ele>
        <time>2009-03-19T09:10:31Z</time>
      </trkpt>
      <trkpt lat="46.3212" lon="-0.21499">
        <ele>151</ele>
        <time>2009-03-19T09:10:36Z</time>
      </trkpt>
      <trkpt lat="46.32119" lon="-0.21498">
        <ele>151</ele>
        <time>2009-03-19T09:10:41Z</time>
      </trkpt>
      <trkpt lat="46.32119" lon="-0.215">
        <ele>151</ele>
        <time>2009-03-19T09:10:46Z</time>
      </trkpt>
      <trkpt lat="46.32119" lon="-0.21501">
        <ele>151</ele>
        <time>2009-03-19T09:10:51Z</time>
      </trkpt>
      <trkpt lat="46.32118" lon="-0.21502">
        <ele>151</ele>
        <time>2009-03-19T09:10:56Z</time>
      </trkpt>
      <trkpt lat="46.32119" lon="-0.21503">
        <ele>151</ele>
        <time>2009-03-19T09:11:01Z</time>
      </trkpt>
      <trkpt lat="46.32119" lon="-0.21502">
        <ele>151</ele>
        <time>2009-03-19T09:11:06Z</time>
      </trkpt>
      <trkpt lat="46.3212" lon="-0.21502">
        <ele>151</ele>
        <time>2009-03-19T09:11:11Z</time>
      </trkpt>
      <trkpt lat="46.3212" lon="-0.21502">
        <ele>151</ele>
        <time>2009-03-19T09:11:16Z</time>
      </trkpt>
      <trkpt lat="46.32121" lon="-0.21501">
        <ele>151</ele>
        <time>2009-03-19T09:11:21Z</time>
      </trkpt>
      <trkpt lat="46.32121" lon="-0.215">
        <ele>151</ele>
        <time>2009-03-19T09:11:26Z</time>
      </trkpt>
      <trkpt lat="46.32128" lon="-0.21489">
        <ele>151</ele>
        <time>2009-03-19T09:11:31Z</time>
      </trkpt>
      <trkpt lat="46.3214" lon="-0.21476">
        <ele>151</ele>
        <time>2009-03-19T09:11:36Z</time>
      </trkpt>
      <trkpt lat="46.3215" lon="-0.21466">
        <ele>151</ele>
        <time>2009-03-19T09:11:41Z</time>
      </trkpt>
      <trkpt lat="46.32161" lon="-0.21456">
        <ele>151</ele>
        <time>2009-03-19T09:11:46Z</time>
      </trkpt>
      <trkpt lat="46.32179" lon="-0.21445">
        <ele>152</ele>
        <time>2009-03-19T09:11:51Z</time>
      </trkpt>
      <trkpt lat="46.32195" lon="-0.21433">
        <ele>153</ele>
        <time>2009-03-19T09:11:56Z</time>
      </trkpt>
      <trkpt lat="46.32212" lon="-0.2142">
        <ele>153</ele>
        <time>2009-03-19T09:12:01Z</time>
      </trkpt>
      <trkpt lat="46.32229" lon="-0.21407">
        <ele>154</ele>
        <time>2009-03-19T09:12:06Z</time>
      </trkpt>
      <trkpt lat="46.32247" lon="-0.21393">
        <ele>154</ele>
        <time>2009-03-19T09:12:11Z</time>
      </trkpt>
      <trkpt lat="46.32265" lon="-0.21381">
        <ele>155</ele>
        <time>2009-03-19T09:12:16Z</time>
      </trkpt>
      <trkpt lat="46.32283" lon="-0.21369">
        <ele>155</ele>
        <time>2009-03-19T09:12:21Z</time>
      </trkpt>
      <trkpt lat="46.32301" lon="-0.21358">
        <ele>156</ele>
        <time>2009-03-19T09:12:26Z</time>
      </trkpt>
      <trkpt lat="46.32317" lon="-0.21346">
        <ele>156</ele>
        <time>2009-03-19T09:12:31Z</time>
      </trkpt>
      <trkpt lat="46.32327" lon="-0.21336">
        <ele>157</ele>
        <time>2009-03-19T09:12:36Z</time>
      </trkpt>
      <trkpt lat="46.32333" lon="-0.21327">
        <ele>157</ele>
        <time>2009-03-19T09:12:41Z</time>
      </trkpt>
      <trkpt lat="46.3233" lon="-0.21306">
        <ele>156</ele>
        <time>2009-03-19T09:12:46Z</time>
      </trkpt>
      <trkpt lat="46.32325" lon="-0.2128">
        <ele>156</ele>
        <time>2009-03-19T09:12:51Z</time>
      </trkpt>
      <trkpt lat="46.32319" lon="-0.21251">
        <ele>156</ele>
        <time>2009-03-19T09:12:56Z</time>
      </trkpt>
      <trkpt lat="46.32329" lon="-0.21234">
        <ele>156</ele>
        <time>2009-03-19T09:13:01Z</time>
      </trkpt>
      <trkpt lat="46.32347" lon="-0.2123">
        <ele>156</ele>
        <time>2009-03-19T09:13:06Z</time>
      </trkpt>
      <trkpt lat="46.32368" lon="-0.21228">
        <ele>156</ele>
        <time>2009-03-19T09:13:11Z</time>
      </trkpt>
      <trkpt lat="46.3239" lon="-0.2123">
        <ele>156</ele>
        <time>2009-03-19T09:13:16Z</time>
      </trkpt>
      <trkpt lat="46.32415" lon="-0.21235">
        <ele>156</ele>
        <time>2009-03-19T09:13:21Z</time>
      </trkpt>
      <trkpt lat="46.32441" lon="-0.21242">
        <ele>156</ele>
        <time>2009-03-19T09:13:26Z</time>
      </trkpt>
      <trkpt lat="46.32467" lon="-0.21247">
        <ele>156</ele>
        <time>2009-03-19T09:13:31Z</time>
      </trkpt>
      <trkpt lat="46.32494" lon="-0.21249">
        <ele>156</ele>
        <time>2009-03-19T09:13:36Z</time>
      </trkpt>
      <trkpt lat="46.32519" lon="-0.21251">
        <ele>156</ele>
        <time>2009-03-19T09:13:41Z</time>
      </trkpt>
      <trkpt lat="46.32541" lon="-0.21249">
        <ele>156</ele>
        <time>2009-03-19T09:13:46Z</time>
      </trkpt>
      <trkpt lat="46.32561" lon="-0.2125">
        <ele>156</ele>
        <time>2009-03-19T09:13:51Z</time>
      </trkpt>
      <trkpt lat="46.32582" lon="-0.21258">
        <ele>156</ele>
        <time>2009-03-19T09:13:56Z</time>
      </trkpt>
      <trkpt lat="46.32606" lon="-0.21258">
        <ele>156</ele>
        <time>2009-03-19T09:14:01Z</time>
      </trkpt>
      <trkpt lat="46.32632" lon="-0.21246">
        <ele>155</ele>
        <time>2009-03-19T09:14:06Z</time>
      </trkpt>
      <trkpt lat="46.3266" lon="-0.21236">
        <ele>155</ele>
        <time>2009-03-19T09:14:11Z</time>
      </trkpt>
      <trkpt lat="46.32688" lon="-0.21226">
        <ele>154</ele>
        <time>2009-03-19T09:14:16Z</time>
      </trkpt>
      <trkpt lat="46.32714" lon="-0.21208">
        <ele>154</ele>
        <time>2009-03-19T09:14:21Z</time>
      </trkpt>
      <trkpt lat="46.3274" lon="-0.21195">
        <ele>154</ele>
        <time>2009-03-19T09:14:26Z</time>
      </trkpt>
      <trkpt lat="46.32766" lon="-0.2118">
        <ele>154</ele>
        <time>2009-03-19T09:14:31Z</time>
      </trkpt>
      <trkpt lat="46.32788" lon="-0.21165">
        <ele>154</ele>
        <time>2009-03-19T09:14:36Z</time>
      </trkpt>
      <trkpt lat="46.32803" lon="-0.2115">
        <ele>154</ele>
        <time>2009-03-19T09:14:41Z</time>
      </trkpt>
      <trkpt lat="46.3282" lon="-0.21135">
        <ele>154</ele>
        <time>2009-03-19T09:14:46Z</time>
      </trkpt>
      <trkpt lat="46.32838" lon="-0.21119">
        <ele>153</ele>
        <time>2009-03-19T09:14:51Z</time>
      </trkpt>
      <trkpt lat="46.32852" lon="-0.21106">
        <ele>153</ele>
        <time>2009-03-19T09:14:56Z</time>
      </trkpt>
      <trkpt lat="46.3287" lon="-0.21091">
        <ele>152</ele>
        <time>2009-03-19T09:15:01Z</time>
      </trkpt>
      <trkpt lat="46.32885" lon="-0.21084">
        <ele>152</ele>
        <time>2009-03-19T09:15:06Z</time>
      </trkpt>
      <trkpt lat="46.32894" lon="-0.2108">
        <ele>151</ele>
        <time>2009-03-19T09:15:11Z</time>
      </trkpt>
      <trkpt lat="46.32907" lon="-0.2108">
        <ele>151</ele>
        <time>2009-03-19T09:15:16Z</time>
      </trkpt>
      <trkpt lat="46.32925" lon="-0.21083">
        <ele>151</ele>
        <time>2009-03-19T09:15:21Z</time>
      </trkpt>
      <trkpt lat="46.3294" lon="-0.21087">
        <ele>150</ele>
        <time>2009-03-19T09:15:26Z</time>
      </trkpt>
      <trkpt lat="46.32953" lon="-0.2109">
        <ele>149</ele>
        <time>2009-03-19T09:15:31Z</time>
      </trkpt>
      <trkpt lat="46.32968" lon="-0.21094">
        <ele>149</ele>
        <time>2009-03-19T09:15:36Z</time>
      </trkpt>
      <trkpt lat="46.32985" lon="-0.21094">
        <ele>149</ele>
        <time>2009-03-19T09:15:41Z</time>
      </trkpt>
      <trkpt lat="46.33001" lon="-0.21093">
        <ele>147</ele>
        <time>2009-03-19T09:15:46Z</time>
      </trkpt>
      <trkpt lat="46.33017" lon="-0.21091">
        <ele>147</ele>
        <time>2009-03-19T09:15:51Z</time>
      </trkpt>
      <trkpt lat="46.33036" lon="-0.21088">
        <ele>147</ele>
        <time>2009-03-19T09:15:56Z</time>
      </trkpt>
      <trkpt lat="46.33055" lon="-0.21082">
        <ele>148</ele>
        <time>2009-03-19T09:16:01Z</time>
      </trkpt>
      <trkpt lat="46.33074" lon="-0.21077">
        <ele>147</ele>
        <time>2009-03-19T09:16:06Z</time>
      </trkpt>
      <trkpt lat="46.33092" lon="-0.2108">
        <ele>147</ele>
        <time>2009-03-19T09:16:11Z</time>
      </trkpt>
      <trkpt lat="46.33106" lon="-0.21073">
        <ele>147</ele>
        <time>2009-03-19T09:16:16Z</time>
      </trkpt>
      <trkpt lat="46.33121" lon="-0.21055">
        <ele>147</ele>
        <time>2009-03-19T09:16:21Z</time>
      </trkpt>
      <trkpt lat="46.33138" lon="-0.21036">
        <ele>147</ele>
        <time>2009-03-19T09:16:26Z</time>
      </trkpt>
      <trkpt lat="46.33156" lon="-0.21018">
        <ele>147</ele>
        <time>2009-03-19T09:16:31Z</time>
      </trkpt>
      <trkpt lat="46.33174" lon="-0.20999">
        <ele>147</ele>
        <time>2009-03-19T09:16:36Z</time>
      </trkpt>
      <trkpt lat="46.33193" lon="-0.20979">
        <ele>147</ele>
        <time>2009-03-19T09:16:41Z</time>
      </trkpt>
      <trkpt lat="46.33214" lon="-0.20958">
        <ele>147</ele>
        <time>2009-03-19T09:16:46Z</time>
      </trkpt>
      <trkpt lat="46.33235" lon="-0.20937">
        <ele>147</ele>
        <time>2009-03-19T09:16:51Z</time>
      </trkpt>
      <trkpt lat="46.33255" lon="-0.20917">
        <ele>148</ele>
        <time>2009-03-19T09:16:56Z</time>
      </trkpt>
      <trkpt lat="46.33276" lon="-0.20893">
        <ele>147</ele>
        <time>2009-03-19T09:17:01Z</time>
      </trkpt>
      <trkpt lat="46.33298" lon="-0.20864">
        <ele>147</ele>
        <time>2009-03-19T09:17:06Z</time>
      </trkpt>
      <trkpt lat="46.33319" lon="-0.20839">
        <ele>146</ele>
        <time>2009-03-19T09:17:11Z</time>
      </trkpt>
      <trkpt lat="46.33349" lon="-0.20835">
        <ele>145</ele>
        <time>2009-03-19T09:17:16Z</time>
      </trkpt>
      <trkpt lat="46.33383" lon="-0.20843">
        <ele>144</ele>
        <time>2009-03-19T09:17:21Z</time>
      </trkpt>
      <trkpt lat="46.3342" lon="-0.20852">
        <ele>141</ele>
        <time>2009-03-19T09:17:26Z</time>
      </trkpt>
      <trkpt lat="46.3345" lon="-0.2088">
        <ele>141</ele>
        <time>2009-03-19T09:17:31Z</time>
      </trkpt>
      <trkpt lat="46.33475" lon="-0.20913">
        <ele>140</ele>
        <time>2009-03-19T09:17:36Z</time>
      </trkpt>
      <trkpt lat="46.33491" lon="-0.20939">
        <ele>141</ele>
        <time>2009-03-19T09:17:41Z</time>
      </trkpt>
      <trkpt lat="46.33507" lon="-0.20956">
        <ele>140</ele>
        <time>2009-03-19T09:17:46Z</time>
      </trkpt>
      <trkpt lat="46.33533" lon="-0.20961">
        <ele>140</ele>
        <time>2009-03-19T09:17:51Z</time>
      </trkpt>
      <trkpt lat="46.33564" lon="-0.20967">
        <ele>139</ele>
        <time>2009-03-19T09:17:56Z</time>
      </trkpt>
      <trkpt lat="46.33597" lon="-0.20975">
        <ele>138</ele>
        <time>2009-03-19T09:18:01Z</time>
      </trkpt>
      <trkpt lat="46.33632" lon="-0.20983">
        <ele>138</ele>
        <time>2009-03-19T09:18:06Z</time>
      </trkpt>
      <trkpt lat="46.33668" lon="-0.2099">
        <ele>137</ele>
        <time>2009-03-19T09:18:11Z</time>
      </trkpt>
      <trkpt lat="46.33706" lon="-0.20995">
        <ele>136</ele>
        <time>2009-03-19T09:18:16Z</time>
      </trkpt>
      <trkpt lat="46.33744" lon="-0.21002">
        <ele>134</ele>
        <time>2009-03-19T09:18:21Z</time>
      </trkpt>
      <trkpt lat="46.3378" lon="-0.21015">
        <ele>133</ele>
        <time>2009-03-19T09:18:26Z</time>
      </trkpt>
      <trkpt lat="46.33814" lon="-0.21026">
        <ele>133</ele>
        <time>2009-03-19T09:18:31Z</time>
      </trkpt>
      <trkpt lat="46.33847" lon="-0.2104">
        <ele>133</ele>
        <time>2009-03-19T09:18:36Z</time>
      </trkpt>
      <trkpt lat="46.3388" lon="-0.21058">
        <ele>133</ele>
        <time>2009-03-19T09:18:41Z</time>
      </trkpt>
      <trkpt lat="46.3391" lon="-0.21068">
        <ele>134</ele>
        <time>2009-03-19T09:18:46Z</time>
      </trkpt>
      <trkpt lat="46.33929" lon="-0.21066">
        <ele>135</ele>
        <time>2009-03-19T09:18:51Z</time>
      </trkpt>
      <trkpt lat="46.33948" lon="-0.21061">
        <ele>136</ele>
        <time>2009-03-19T09:18:56Z</time>
      </trkpt>
      <trkpt lat="46.33966" lon="-0.21053">
        <ele>136</ele>
        <time>2009-03-19T09:19:01Z</time>
      </trkpt>
      <trkpt lat="46.33981" lon="-0.21046">
        <ele>137</ele>
        <time>2009-03-19T09:19:06Z</time>
      </trkpt>
      <trkpt lat="46.33999" lon="-0.21041">
        <ele>137</ele>
        <time>2009-03-19T09:19:11Z</time>
      </trkpt>
      <trkpt lat="46.34016" lon="-0.21036">
        <ele>140</ele>
        <time>2009-03-19T09:19:16Z</time>
      </trkpt>
      <trkpt lat="46.34033" lon="-0.21029">
        <ele>141</ele>
        <time>2009-03-19T09:19:21Z</time>
      </trkpt>
      <trkpt lat="46.34048" lon="-0.21021">
        <ele>141</ele>
        <time>2009-03-19T09:19:26Z</time>
      </trkpt>
      <trkpt lat="46.34065" lon="-0.21017">
        <ele>142</ele>
        <time>2009-03-19T09:19:31Z</time>
      </trkpt>
      <trkpt lat="46.34078" lon="-0.21021">
        <ele>143</ele>
        <time>2009-03-19T09:19:36Z</time>
      </trkpt>
      <trkpt lat="46.3409" lon="-0.21028">
        <ele>145</ele>
        <time>2009-03-19T09:19:41Z</time>
      </trkpt>
      <trkpt lat="46.34103" lon="-0.21039">
        <ele>145</ele>
        <time>2009-03-19T09:19:46Z</time>
      </trkpt>
      <trkpt lat="46.34113" lon="-0.21053">
        <ele>145</ele>
        <time>2009-03-19T09:19:51Z</time>
      </trkpt>
      <trkpt lat="46.34123" lon="-0.21066">
        <ele>145</ele>
        <time>2009-03-19T09:19:56Z</time>
      </trkpt>
      <trkpt lat="46.34133" lon="-0.21073">
        <ele>145</ele>
        <time>2009-03-19T09:20:01Z</time>
      </trkpt>
      <trkpt lat="46.34148" lon="-0.21081">
        <ele>145</ele>
        <time>2009-03-19T09:20:06Z</time>
      </trkpt>
      <trkpt lat="46.34161" lon="-0.21083">
        <ele>146</ele>
        <time>2009-03-19T09:20:11Z</time>
      </trkpt>
      <trkpt lat="46.34173" lon="-0.21087">
        <ele>146</ele>
        <time>2009-03-19T09:20:16Z</time>
      </trkpt>
      <trkpt lat="46.34185" lon="-0.21089">
        <ele>146</ele>
        <time>2009-03-19T09:20:21Z</time>
      </trkpt>
      <trkpt lat="46.34196" lon="-0.2109">
        <ele>147</ele>
        <time>2009-03-19T09:20:26Z</time>
      </trkpt>
      <trkpt lat="46.34208" lon="-0.21087">
        <ele>147</ele>
        <time>2009-03-19T09:20:31Z</time>
      </trkpt>
      <trkpt lat="46.34214" lon="-0.21076">
        <ele>148</ele>
        <time>2009-03-19T09:20:36Z</time>
      </trkpt>
      <trkpt lat="46.34218" lon="-0.21062">
        <ele>148</ele>
        <time>2009-03-19T09:20:41Z</time>
      </trkpt>
      <trkpt lat="46.34221" lon="-0.21054">
        <ele>148</ele>
        <time>2009-03-19T09:20:46Z</time>
      </trkpt>
      <trkpt lat="46.34223" lon="-0.21044">
        <ele>149</ele>
        <time>2009-03-19T09:20:51Z</time>
      </trkpt>
      <trkpt lat="46.34226" lon="-0.21032">
        <ele>149</ele>
        <time>2009-03-19T09:20:56Z</time>
      </trkpt>
      <trkpt lat="46.34232" lon="-0.21019">
        <ele>150</ele>
        <time>2009-03-19T09:21:01Z</time>
      </trkpt>
      <trkpt lat="46.34242" lon="-0.21013">
        <ele>150</ele>
        <time>2009-03-19T09:21:06Z</time>
      </trkpt>
      <trkpt lat="46.34255" lon="-0.21008">
        <ele>151</ele>
        <time>2009-03-19T09:21:11Z</time>
      </trkpt>
      <trkpt lat="46.34268" lon="-0.21">
        <ele>150</ele>
        <time>2009-03-19T09:21:16Z</time>
      </trkpt>
      <trkpt lat="46.34284" lon="-0.20997">
        <ele>152</ele>
        <time>2009-03-19T09:21:21Z</time>
      </trkpt>
      <trkpt lat="46.34302" lon="-0.20995">
        <ele>151</ele>
        <time>2009-03-19T09:21:26Z</time>
      </trkpt>
      <trkpt lat="46.34318" lon="-0.20995">
        <ele>149</ele>
        <time>2009-03-19T09:21:31Z</time>
      </trkpt>
      <trkpt lat="46.34332" lon="-0.20986">
        <ele>149</ele>
        <time>2009-03-19T09:21:36Z</time>
      </trkpt>
      <trkpt lat="46.3435" lon="-0.20972">
        <ele>147</ele>
        <time>2009-03-19T09:21:41Z</time>
      </trkpt>
      <trkpt lat="46.34364" lon="-0.2096">
        <ele>147</ele>
        <time>2009-03-19T09:21:46Z</time>
      </trkpt>
      <trkpt lat="46.34377" lon="-0.20946">
        <ele>146</ele>
        <time>2009-03-19T09:21:51Z</time>
      </trkpt>
      <trkpt lat="46.34391" lon="-0.2093">
        <ele>146</ele>
        <time>2009-03-19T09:21:56Z</time>
      </trkpt>
      <trkpt lat="46.34408" lon="-0.20914">
        <ele>146</ele>
        <time>2009-03-19T09:22:01Z</time>
      </trkpt>
      <trkpt lat="46.34425" lon="-0.20907">
        <ele>144</ele>
        <time>2009-03-19T09:22:06Z</time>
      </trkpt>
      <trkpt lat="46.3445" lon="-0.20905">
        <ele>143</ele>
        <time>2009-03-19T09:22:11Z</time>
      </trkpt>
      <trkpt lat="46.34471" lon="-0.20902">
        <ele>142</ele>
        <time>2009-03-19T09:22:16Z</time>
      </trkpt>
      <trkpt lat="46.34491" lon="-0.20902">
        <ele>142</ele>
        <time>2009-03-19T09:22:21Z</time>
      </trkpt>
      <trkpt lat="46.34514" lon="-0.20892">
        <ele>138</ele>
        <time>2009-03-19T09:22:26Z</time>
      </trkpt>
      <trkpt lat="46.34534" lon="-0.20877">
        <ele>138</ele>
        <time>2009-03-19T09:22:31Z</time>
      </trkpt>
      <trkpt lat="46.34556" lon="-0.20868">
        <ele>137</ele>
        <time>2009-03-19T09:22:36Z</time>
      </trkpt>
      <trkpt lat="46.34575" lon="-0.20867">
        <ele>136</ele>
        <time>2009-03-19T09:22:41Z</time>
      </trkpt>
      <trkpt lat="46.34591" lon="-0.20863">
        <ele>133</ele>
        <time>2009-03-19T09:22:46Z</time>
      </trkpt>
      <trkpt lat="46.34601" lon="-0.20847">
        <ele>133</ele>
        <time>2009-03-19T09:22:51Z</time>
      </trkpt>
      <trkpt lat="46.34606" lon="-0.20817">
        <ele>132</ele>
        <time>2009-03-19T09:22:56Z</time>
      </trkpt>
      <trkpt lat="46.34606" lon="-0.20785">
        <ele>131</ele>
        <time>2009-03-19T09:23:01Z</time>
      </trkpt>
      <trkpt lat="46.34603" lon="-0.20759">
        <ele>131</ele>
        <time>2009-03-19T09:23:06Z</time>
      </trkpt>
      <trkpt lat="46.34597" lon="-0.20726">
        <ele>128</ele>
        <time>2009-03-19T09:23:11Z</time>
      </trkpt>
      <trkpt lat="46.34596" lon="-0.20681">
        <ele>126</ele>
        <time>2009-03-19T09:23:16Z</time>
      </trkpt>
      <trkpt lat="46.34602" lon="-0.20647">
        <ele>122</ele>
        <time>2009-03-19T09:23:21Z</time>
      </trkpt>
      <trkpt lat="46.34606" lon="-0.20613">
        <ele>120</ele>
        <time>2009-03-19T09:23:26Z</time>
      </trkpt>
      <trkpt lat="46.34614" lon="-0.20591">
        <ele>119</ele>
        <time>2009-03-19T09:23:31Z</time>
      </trkpt>
      <trkpt lat="46.34626" lon="-0.20586">
        <ele>118</ele>
        <time>2009-03-19T09:23:36Z</time>
      </trkpt>
      <trkpt lat="46.34641" lon="-0.20591">
        <ele>115</ele>
        <time>2009-03-19T09:23:41Z</time>
      </trkpt>
      <trkpt lat="46.34656" lon="-0.20595">
        <ele>113</ele>
        <time>2009-03-19T09:23:46Z</time>
      </trkpt>
      <trkpt lat="46.34676" lon="-0.20598">
        <ele>110</ele>
        <time>2009-03-19T09:23:51Z</time>
      </trkpt>
      <trkpt lat="46.34693" lon="-0.20606">
        <ele>111</ele>
        <time>2009-03-19T09:23:56Z</time>
      </trkpt>
      <trkpt lat="46.34709" lon="-0.2061">
        <ele>111</ele>
        <time>2009-03-19T09:24:01Z</time>
      </trkpt>
      <trkpt lat="46.34727" lon="-0.20616">
        <ele>111</ele>
        <time>2009-03-19T09:24:06Z</time>
      </trkpt>
      <trkpt lat="46.34742" lon="-0.20623">
        <ele>112</ele>
        <time>2009-03-19T09:24:11Z</time>
      </trkpt>
      <trkpt lat="46.34753" lon="-0.20629">
        <ele>113</ele>
        <time>2009-03-19T09:24:16Z</time>
      </trkpt>
      <trkpt lat="46.34765" lon="-0.20632">
        <ele>113</ele>
        <time>2009-03-19T09:24:21Z</time>
      </trkpt>
      <trkpt lat="46.34777" lon="-0.20636">
        <ele>114</ele>
        <time>2009-03-19T09:24:26Z</time>
      </trkpt>
      <trkpt lat="46.34789" lon="-0.20639">
        <ele>114</ele>
        <time>2009-03-19T09:24:31Z</time>
      </trkpt>
      <trkpt lat="46.34798" lon="-0.20642">
        <ele>114</ele>
        <time>2009-03-19T09:24:36Z</time>
      </trkpt>
      <trkpt lat="46.34808" lon="-0.20644">
        <ele>115</ele>
        <time>2009-03-19T09:24:41Z</time>
      </trkpt>
      <trkpt lat="46.34819" lon="-0.20648">
        <ele>116</ele>
        <time>2009-03-19T09:24:46Z</time>
      </trkpt>
      <trkpt lat="46.34831" lon="-0.20651">
        <ele>117</ele>
        <time>2009-03-19T09:24:51Z</time>
      </trkpt>
      <trkpt lat="46.34843" lon="-0.20653">
        <ele>118</ele>
        <time>2009-03-19T09:24:56Z</time>
      </trkpt>
      <trkpt lat="46.34857" lon="-0.20654">
        <ele>118</ele>
        <time>2009-03-19T09:25:01Z</time>
      </trkpt>
      <trkpt lat="46.3487" lon="-0.20654">
        <ele>118</ele>
        <time>2009-03-19T09:25:06Z</time>
      </trkpt>
      <trkpt lat="46.34884" lon="-0.20653">
        <ele>118</ele>
        <time>2009-03-19T09:25:11Z</time>
      </trkpt>
      <trkpt lat="46.34897" lon="-0.20648">
        <ele>118</ele>
        <time>2009-03-19T09:25:16Z</time>
      </trkpt>
      <trkpt lat="46.34911" lon="-0.2064">
        <ele>118</ele>
        <time>2009-03-19T09:25:21Z</time>
      </trkpt>
      <trkpt lat="46.34924" lon="-0.20636">
        <ele>120</ele>
        <time>2009-03-19T09:28:41Z</time>
      </trkpt>
      <trkpt lat="46.34928" lon="-0.20634">
        <ele>120</ele>
        <time>2009-03-19T09:28:46Z</time>
      </trkpt>
      <trkpt lat="46.34938" lon="-0.20631">
        <ele>120</ele>
        <time>2009-03-19T09:28:51Z</time>
      </trkpt>
      <trkpt lat="46.34949" lon="-0.20628">
        <ele>120</ele>
        <time>2009-03-19T09:28:56Z</time>
      </trkpt>
      <trkpt lat="46.3496" lon="-0.20626">
        <ele>120</ele>
        <time>2009-03-19T09:29:01Z</time>
      </trkpt>
      <trkpt lat="46.34972" lon="-0.20624">
        <ele>120</ele>
        <time>2009-03-19T09:29:06Z</time>
      </trkpt>
      <trkpt lat="46.34978" lon="-0.20612">
        <ele>120</ele>
        <time>2009-03-19T09:29:11Z</time>
      </trkpt>
      <trkpt lat="46.34985" lon="-0.20589">
        <ele>119</ele>
        <time>2009-03-19T09:29:16Z</time>
      </trkpt>
      <trkpt lat="46.34991" lon="-0.20568">
        <ele>116</ele>
        <time>2009-03-19T09:29:21Z</time>
      </trkpt>
      <trkpt lat="46.34994" lon="-0.20552">
        <ele>114</ele>
        <time>2009-03-19T09:29:26Z</time>
      </trkpt>
      <trkpt lat="46.34991" lon="-0.20538">
        <ele>113</ele>
        <time>2009-03-19T09:29:31Z</time>
      </trkpt>
      <trkpt lat="46.34984" lon="-0.20525">
        <ele>112</ele>
        <time>2009-03-19T09:29:36Z</time>
      </trkpt>
      <trkpt lat="46.34977" lon="-0.20509">
        <ele>112</ele>
        <time>2009-03-19T09:29:41Z</time>
      </trkpt>
      <trkpt lat="46.34967" lon="-0.20498">
        <ele>108</ele>
        <time>2009-03-19T09:29:46Z</time>
      </trkpt>
      <trkpt lat="46.34961" lon="-0.20487">
        <ele>108</ele>
        <time>2009-03-19T09:29:51Z</time>
      </trkpt>
      <trkpt lat="46.34962" lon="-0.20466">
        <ele>107</ele>
        <time>2009-03-19T09:29:56Z</time>
      </trkpt>
      <trkpt lat="46.34971" lon="-0.20448">
        <ele>107</ele>
        <time>2009-03-19T09:30:01Z</time>
      </trkpt>
      <trkpt lat="46.3498" lon="-0.20433">
        <ele>107</ele>
        <time>2009-03-19T09:30:06Z</time>
      </trkpt>
      <trkpt lat="46.34983" lon="-0.20423">
        <ele>106</ele>
        <time>2009-03-19T09:30:11Z</time>
      </trkpt>
      <trkpt lat="46.34984" lon="-0.20412">
        <ele>106</ele>
        <time>2009-03-19T09:30:16Z</time>
      </trkpt>
      <trkpt lat="46.34985" lon="-0.20399">
        <ele>106</ele>
        <time>2009-03-19T09:30:21Z</time>
      </trkpt>
      <trkpt lat="46.34982" lon="-0.20384">
        <ele>106</ele>
        <time>2009-03-19T09:30:26Z</time>
      </trkpt>
      <trkpt lat="46.34977" lon="-0.20378">
        <ele>106</ele>
        <time>2009-03-19T09:30:31Z</time>
      </trkpt>
      <trkpt lat="46.34977" lon="-0.20373">
        <ele>107</ele>
        <time>2009-03-19T09:30:36Z</time>
      </trkpt>
      <trkpt lat="46.34974" lon="-0.20368">
        <ele>107</ele>
        <time>2009-03-19T09:30:41Z</time>
      </trkpt>
      <trkpt lat="46.34972" lon="-0.2036">
        <ele>107</ele>
        <time>2009-03-19T09:30:46Z</time>
      </trkpt>
      <trkpt lat="46.3497" lon="-0.20353">
        <ele>107</ele>
        <time>2009-03-19T09:30:51Z</time>
      </trkpt>
      <trkpt lat="46.34971" lon="-0.20343">
        <ele>107</ele>
        <time>2009-03-19T09:30:56Z</time>
      </trkpt>
      <trkpt lat="46.34968" lon="-0.20336">
        <ele>107</ele>
        <time>2009-03-19T09:31:01Z</time>
      </trkpt>
      <trkpt lat="46.34965" lon="-0.20332">
        <ele>109</ele>
        <time>2009-03-19T09:31:06Z</time>
      </trkpt>
      <trkpt lat="46.34964" lon="-0.2033">
        <ele>109</ele>
        <time>2009-03-19T09:31:11Z</time>
      </trkpt>
      <trkpt lat="46.34962" lon="-0.20329">
        <ele>109</ele>
        <time>2009-03-19T09:31:16Z</time>
      </trkpt>
      <trkpt lat="46.3496" lon="-0.20328">
        <ele>109</ele>
        <time>2009-03-19T09:31:21Z</time>
      </trkpt>
      <trkpt lat="46.34959" lon="-0.20323">
        <ele>109</ele>
        <time>2009-03-19T09:31:26Z</time>
      </trkpt>
      <trkpt lat="46.34958" lon="-0.20314">
        <ele>109</ele>
        <time>2009-03-19T09:31:31Z</time>
      </trkpt>
      <trkpt lat="46.34957" lon="-0.20305">
        <ele>110</ele>
        <time>2009-03-19T09:31:36Z</time>
      </trkpt>
      <trkpt lat="46.34956" lon="-0.20297">
        <ele>110</ele>
        <time>2009-03-19T09:31:41Z</time>
      </trkpt>
      <trkpt lat="46.34955" lon="-0.2029">
        <ele>110</ele>
        <time>2009-03-19T09:31:46Z</time>
      </trkpt>
      <trkpt lat="46.34957" lon="-0.2028">
        <ele>110</ele>
        <time>2009-03-19T09:31:51Z</time>
      </trkpt>
      <trkpt lat="46.34957" lon="-0.20274">
        <ele>110</ele>
        <time>2009-03-19T09:31:56Z</time>
      </trkpt>
      <trkpt lat="46.34958" lon="-0.20264">
        <ele>111</ele>
        <time>2009-03-19T09:32:01Z</time>
      </trkpt>
      <trkpt lat="46.34956" lon="-0.20254">
        <ele>111</ele>
        <time>2009-03-19T09:32:06Z</time>
      </trkpt>
      <trkpt lat="46.34954" lon="-0.20245">
        <ele>114</ele>
        <time>2009-03-19T09:32:11Z</time>
      </trkpt>
      <trkpt lat="46.34954" lon="-0.20234">
        <ele>114</ele>
        <time>2009-03-19T09:32:16Z</time>
      </trkpt>
      <trkpt lat="46.34953" lon="-0.20221">
        <ele>114</ele>
        <time>2009-03-19T09:32:21Z</time>
      </trkpt>
      <trkpt lat="46.34951" lon="-0.20211">
        <ele>115</ele>
        <time>2009-03-19T09:32:26Z</time>
      </trkpt>
      <trkpt lat="46.34947" lon="-0.20197">
        <ele>115</ele>
        <time>2009-03-19T09:32:31Z</time>
      </trkpt>
      <trkpt lat="46.34942" lon="-0.20187">
        <ele>116</ele>
        <time>2009-03-19T09:32:36Z</time>
      </trkpt>
      <trkpt lat="46.34936" lon="-0.20173">
        <ele>117</ele>
        <time>2009-03-19T09:32:41Z</time>
      </trkpt>
      <trkpt lat="46.34933" lon="-0.20159">
        <ele>120</ele>
        <time>2009-03-19T09:32:46Z</time>
      </trkpt>
      <trkpt lat="46.34932" lon="-0.20144">
        <ele>120</ele>
        <time>2009-03-19T09:32:51Z</time>
      </trkpt>
      <trkpt lat="46.34929" lon="-0.2013">
        <ele>120</ele>
        <time>2009-03-19T09:32:56Z</time>
      </trkpt>
      <trkpt lat="46.34926" lon="-0.20115">
        <ele>121</ele>
        <time>2009-03-19T09:33:01Z</time>
      </trkpt>
      <trkpt lat="46.34923" lon="-0.20103">
        <ele>122</ele>
        <time>2009-03-19T09:33:06Z</time>
      </trkpt>
      <trkpt lat="46.3492" lon="-0.20092">
        <ele>123</ele>
        <time>2009-03-19T09:33:11Z</time>
      </trkpt>
      <trkpt lat="46.34915" lon="-0.2008">
        <ele>124</ele>
        <time>2009-03-19T09:33:16Z</time>
      </trkpt>
      <trkpt lat="46.3491" lon="-0.20069">
        <ele>125</ele>
        <time>2009-03-19T09:33:21Z</time>
      </trkpt>
      <trkpt lat="46.34907" lon="-0.20058">
        <ele>126</ele>
        <time>2009-03-19T09:33:26Z</time>
      </trkpt>
      <trkpt lat="46.34903" lon="-0.20046">
        <ele>127</ele>
        <time>2009-03-19T09:33:31Z</time>
      </trkpt>
      <trkpt lat="46.349" lon="-0.20036">
        <ele>127</ele>
        <time>2009-03-19T09:33:36Z</time>
      </trkpt>
      <trkpt lat="46.34898" lon="-0.20024">
        <ele>127</ele>
        <time>2009-03-19T09:33:41Z</time>
      </trkpt>
      <trkpt lat="46.34893" lon="-0.20013">
        <ele>127</ele>
        <time>2009-03-19T09:33:46Z</time>
      </trkpt>
      <trkpt lat="46.34891" lon="-0.20001">
        <ele>128</ele>
        <time>2009-03-19T09:33:51Z</time>
      </trkpt>
      <trkpt lat="46.34888" lon="-0.19989">
        <ele>129</ele>
        <time>2009-03-19T09:33:56Z</time>
      </trkpt>
      <trkpt lat="46.34886" lon="-0.19974">
        <ele>129</ele>
        <time>2009-03-19T09:34:01Z</time>
      </trkpt>
      <trkpt lat="46.34888" lon="-0.1996">
        <ele>129</ele>
        <time>2009-03-19T09:34:06Z</time>
      </trkpt>
      <trkpt lat="46.34896" lon="-0.19951">
        <ele>129</ele>
        <time>2009-03-19T09:34:11Z</time>
      </trkpt>
      <trkpt lat="46.34912" lon="-0.19947">
        <ele>129</ele>
        <time>2009-03-19T09:34:16Z</time>
      </trkpt>
      <trkpt lat="46.34933" lon="-0.19944">
        <ele>127</ele>
        <time>2009-03-19T09:34:21Z</time>
      </trkpt>
      <trkpt lat="46.34956" lon="-0.1994">
        <ele>126</ele>
        <time>2009-03-19T09:34:26Z</time>
      </trkpt>
      <trkpt lat="46.34983" lon="-0.19937">
        <ele>126</ele>
        <time>2009-03-19T09:34:31Z</time>
      </trkpt>
      <trkpt lat="46.35015" lon="-0.19923">
        <ele>124</ele>
        <time>2009-03-19T09:34:36Z</time>
      </trkpt>
      <trkpt lat="46.35049" lon="-0.19907">
        <ele>124</ele>
        <time>2009-03-19T09:34:41Z</time>
      </trkpt>
      <trkpt lat="46.35079" lon="-0.199">
        <ele>123</ele>
        <time>2009-03-19T09:34:46Z</time>
      </trkpt>
      <trkpt lat="46.35106" lon="-0.19895">
        <ele>124</ele>
        <time>2009-03-19T09:34:51Z</time>
      </trkpt>
      <trkpt lat="46.35127" lon="-0.19889">
        <ele>125</ele>
        <time>2009-03-19T09:34:56Z</time>
      </trkpt>
      <trkpt lat="46.35141" lon="-0.19886">
        <ele>126</ele>
        <time>2009-03-19T09:35:01Z</time>
      </trkpt>
      <trkpt lat="46.35154" lon="-0.19885">
        <ele>126</ele>
        <time>2009-03-19T09:35:06Z</time>
      </trkpt>
      <trkpt lat="46.35166" lon="-0.19882">
        <ele>126</ele>
        <time>2009-03-19T09:35:11Z</time>
      </trkpt>
      <trkpt lat="46.3518" lon="-0.19885">
        <ele>127</ele>
        <time>2009-03-19T09:35:16Z</time>
      </trkpt>
      <trkpt lat="46.35191" lon="-0.19884">
        <ele>127</ele>
        <time>2009-03-19T09:35:21Z</time>
      </trkpt>
      <trkpt lat="46.35203" lon="-0.19883">
        <ele>127</ele>
        <time>2009-03-19T09:35:26Z</time>
      </trkpt>
      <trkpt lat="46.35215" lon="-0.1987">
        <ele>127</ele>
        <time>2009-03-19T09:35:31Z</time>
      </trkpt>
      <trkpt lat="46.35221" lon="-0.19848">
        <ele>127</ele>
        <time>2009-03-19T09:35:36Z</time>
      </trkpt>
      <trkpt lat="46.35229" lon="-0.19826">
        <ele>129</ele>
        <time>2009-03-19T09:35:41Z</time>
      </trkpt>
      <trkpt lat="46.35235" lon="-0.198">
        <ele>130</ele>
        <time>2009-03-19T09:35:46Z</time>
      </trkpt>
      <trkpt lat="46.35242" lon="-0.19776">
        <ele>131</ele>
        <time>2009-03-19T09:35:51Z</time>
      </trkpt>
      <trkpt lat="46.35245" lon="-0.1975">
        <ele>132</ele>
        <time>2009-03-19T09:35:56Z</time>
      </trkpt>
      <trkpt lat="46.35245" lon="-0.19724">
        <ele>133</ele>
        <time>2009-03-19T09:36:01Z</time>
      </trkpt>
      <trkpt lat="46.35241" lon="-0.19697">
        <ele>133</ele>
        <time>2009-03-19T09:36:06Z</time>
      </trkpt>
      <trkpt lat="46.35232" lon="-0.19673">
        <ele>133</ele>
        <time>2009-03-19T09:36:11Z</time>
      </trkpt>
      <trkpt lat="46.35223" lon="-0.19646">
        <ele>133</ele>
        <time>2009-03-19T09:36:16Z</time>
      </trkpt>
      <trkpt lat="46.35218" lon="-0.19616">
        <ele>132</ele>
        <time>2009-03-19T09:36:21Z</time>
      </trkpt>
      <trkpt lat="46.35214" lon="-0.19582">
        <ele>132</ele>
        <time>2009-03-19T09:36:26Z</time>
      </trkpt>
      <trkpt lat="46.35212" lon="-0.19547">
        <ele>133</ele>
        <time>2009-03-19T09:36:31Z</time>
      </trkpt>
      <trkpt lat="46.35208" lon="-0.19512">
        <ele>133</ele>
        <time>2009-03-19T09:36:36Z</time>
      </trkpt>
      <trkpt lat="46.35201" lon="-0.19478">
        <ele>134</ele>
        <time>2009-03-19T09:36:41Z</time>
      </trkpt>
      <trkpt lat="46.35193" lon="-0.19446">
        <ele>134</ele>
        <time>2009-03-19T09:36:46Z</time>
      </trkpt>
      <trkpt lat="46.35184" lon="-0.19414">
        <ele>135</ele>
        <time>2009-03-19T09:36:51Z</time>
      </trkpt>
      <trkpt lat="46.35175" lon="-0.19385">
        <ele>135</ele>
        <time>2009-03-19T09:36:56Z</time>
      </trkpt>
      <trkpt lat="46.35166" lon="-0.19356">
        <ele>135</ele>
        <time>2009-03-19T09:37:01Z</time>
      </trkpt>
      <trkpt lat="46.35157" lon="-0.1933">
        <ele>136</ele>
        <time>2009-03-19T09:37:06Z</time>
      </trkpt>
      <trkpt lat="46.35148" lon="-0.19305">
        <ele>137</ele>
        <time>2009-03-19T09:37:11Z</time>
      </trkpt>
      <trkpt lat="46.3514" lon="-0.1928">
        <ele>137</ele>
        <time>2009-03-19T09:37:16Z</time>
      </trkpt>
      <trkpt lat="46.35132" lon="-0.19256">
        <ele>138</ele>
        <time>2009-03-19T09:37:21Z</time>
      </trkpt>
      <trkpt lat="46.35123" lon="-0.19231">
        <ele>140</ele>
        <time>2009-03-19T09:37:26Z</time>
      </trkpt>
      <trkpt lat="46.35114" lon="-0.19205">
        <ele>140</ele>
        <time>2009-03-19T09:37:31Z</time>
      </trkpt>
      <trkpt lat="46.35105" lon="-0.19183">
        <ele>141</ele>
        <time>2009-03-19T09:37:36Z</time>
      </trkpt>
      <trkpt lat="46.35093" lon="-0.19179">
        <ele>142</ele>
        <time>2009-03-19T09:37:41Z</time>
      </trkpt>
      <trkpt lat="46.3508" lon="-0.1919">
        <ele>143</ele>
        <time>2009-03-19T09:37:46Z</time>
      </trkpt>
      <trkpt lat="46.35065" lon="-0.19205">
        <ele>143</ele>
        <time>2009-03-19T09:37:51Z</time>
      </trkpt>
      <trkpt lat="46.35047" lon="-0.19216">
        <ele>143</ele>
        <time>2009-03-19T09:37:56Z</time>
      </trkpt>
      <trkpt lat="46.35025" lon="-0.19214">
        <ele>143</ele>
        <time>2009-03-19T09:38:01Z</time>
      </trkpt>
      <trkpt lat="46.35004" lon="-0.19206">
        <ele>143</ele>
        <time>2009-03-19T09:38:06Z</time>
      </trkpt>
      <trkpt lat="46.34986" lon="-0.19198">
        <ele>143</ele>
        <time>2009-03-19T09:38:11Z</time>
      </trkpt>
      <trkpt lat="46.34969" lon="-0.19188">
        <ele>143</ele>
        <time>2009-03-19T09:38:16Z</time>
      </trkpt>
      <trkpt lat="46.34954" lon="-0.19177">
        <ele>143</ele>
        <time>2009-03-19T09:38:21Z</time>
      </trkpt>
      <trkpt lat="46.34938" lon="-0.19166">
        <ele>143</ele>
        <time>2009-03-19T09:38:26Z</time>
      </trkpt>
      <trkpt lat="46.34917" lon="-0.19157">
        <ele>142</ele>
        <time>2009-03-19T09:38:31Z</time>
      </trkpt>
      <trkpt lat="46.34894" lon="-0.19151">
        <ele>142</ele>
        <time>2009-03-19T09:38:36Z</time>
      </trkpt>
      <trkpt lat="46.3487" lon="-0.1915">
        <ele>141</ele>
        <time>2009-03-19T09:38:41Z</time>
      </trkpt>
      <trkpt lat="46.34845" lon="-0.19152">
        <ele>141</ele>
        <time>2009-03-19T09:38:46Z</time>
      </trkpt>
      <trkpt lat="46.3482" lon="-0.1915">
        <ele>140</ele>
        <time>2009-03-19T09:38:51Z</time>
      </trkpt>
      <trkpt lat="46.34795" lon="-0.19146">
        <ele>139</ele>
        <time>2009-03-19T09:38:56Z</time>
      </trkpt>
      <trkpt lat="46.34769" lon="-0.19143">
        <ele>139</ele>
        <time>2009-03-19T09:39:01Z</time>
      </trkpt>
      <trkpt lat="46.34742" lon="-0.1914">
        <ele>137</ele>
        <time>2009-03-19T09:39:06Z</time>
      </trkpt>
      <trkpt lat="46.34714" lon="-0.1912">
        <ele>137</ele>
        <time>2009-03-19T09:39:11Z</time>
      </trkpt>
      <trkpt lat="46.34686" lon="-0.19098">
        <ele>136</ele>
        <time>2009-03-19T09:39:16Z</time>
      </trkpt>
      <trkpt lat="46.34665" lon="-0.19068">
        <ele>133</ele>
        <time>2009-03-19T09:39:21Z</time>
      </trkpt>
      <trkpt lat="46.34644" lon="-0.19036">
        <ele>131</ele>
        <time>2009-03-19T09:39:26Z</time>
      </trkpt>
      <trkpt lat="46.34623" lon="-0.18993">
        <ele>131</ele>
        <time>2009-03-19T09:39:31Z</time>
      </trkpt>
      <trkpt lat="46.34601" lon="-0.18954">
        <ele>131</ele>
        <time>2009-03-19T09:39:36Z</time>
      </trkpt>
      <trkpt lat="46.34585" lon="-0.18924">
        <ele>131</ele>
        <time>2009-03-19T09:39:41Z</time>
      </trkpt>
      <trkpt lat="46.34574" lon="-0.18901">
        <ele>133</ele>
        <time>2009-03-19T09:39:46Z</time>
      </trkpt>
      <trkpt lat="46.34565" lon="-0.18883">
        <ele>134</ele>
        <time>2009-03-19T09:39:51Z</time>
      </trkpt>
      <trkpt lat="46.34556" lon="-0.18867">
        <ele>134</ele>
        <time>2009-03-19T09:39:56Z</time>
      </trkpt>
      <trkpt lat="46.34548" lon="-0.18849">
        <ele>135</ele>
        <time>2009-03-19T09:40:01Z</time>
      </trkpt>
      <trkpt lat="46.34539" lon="-0.1883">
        <ele>138</ele>
        <time>2009-03-19T09:40:06Z</time>
      </trkpt>
      <trkpt lat="46.34529" lon="-0.18817">
        <ele>139</ele>
        <time>2009-03-19T09:40:11Z</time>
      </trkpt>
      <trkpt lat="46.34518" lon="-0.18832">
        <ele>139</ele>
        <time>2009-03-19T09:40:16Z</time>
      </trkpt>
      <trkpt lat="46.34505" lon="-0.18858">
        <ele>136</ele>
        <time>2009-03-19T09:40:21Z</time>
      </trkpt>
      <trkpt lat="46.3449" lon="-0.18889">
        <ele>138</ele>
        <time>2009-03-19T09:40:26Z</time>
      </trkpt>
      <trkpt lat="46.34472" lon="-0.18925">
        <ele>135</ele>
        <time>2009-03-19T09:40:31Z</time>
      </trkpt>
      <trkpt lat="46.34455" lon="-0.18965">
        <ele>136</ele>
        <time>2009-03-19T09:40:36Z</time>
      </trkpt>
      <trkpt lat="46.34438" lon="-0.19004">
        <ele>135</ele>
        <time>2009-03-19T09:40:41Z</time>
      </trkpt>
      <trkpt lat="46.34422" lon="-0.19043">
        <ele>134</ele>
        <time>2009-03-19T09:40:46Z</time>
      </trkpt>
      <trkpt lat="46.34405" lon="-0.19085">
        <ele>135</ele>
        <time>2009-03-19T09:40:51Z</time>
      </trkpt>
      <trkpt lat="46.34391" lon="-0.19123">
        <ele>137</ele>
        <time>2009-03-19T09:40:56Z</time>
      </trkpt>
      <trkpt lat="46.3438" lon="-0.19157">
        <ele>137</ele>
        <time>2009-03-19T09:41:01Z</time>
      </trkpt>
      <trkpt lat="46.3437" lon="-0.1919">
        <ele>136</ele>
        <time>2009-03-19T09:41:06Z</time>
      </trkpt>
      <trkpt lat="46.3436" lon="-0.19228">
        <ele>136</ele>
        <time>2009-03-19T09:41:11Z</time>
      </trkpt>
      <trkpt lat="46.34358" lon="-0.19267">
        <ele>134</ele>
        <time>2009-03-19T09:41:16Z</time>
      </trkpt>
      <trkpt lat="46.34359" lon="-0.19289">
        <ele>132</ele>
        <time>2009-03-19T09:41:21Z</time>
      </trkpt>
      <trkpt lat="46.34356" lon="-0.19307">
        <ele>132</ele>
        <time>2009-03-19T09:41:26Z</time>
      </trkpt>
      <trkpt lat="46.34353" lon="-0.19327">
        <ele>131</ele>
        <time>2009-03-19T09:41:31Z</time>
      </trkpt>
      <trkpt lat="46.34344" lon="-0.19344">
        <ele>129</ele>
        <time>2009-03-19T09:41:36Z</time>
      </trkpt>
      <trkpt lat="46.34334" lon="-0.1936">
        <ele>128</ele>
        <time>2009-03-19T09:41:41Z</time>
      </trkpt>
      <trkpt lat="46.34322" lon="-0.19364">
        <ele>132</ele>
        <time>2009-03-19T09:41:46Z</time>
      </trkpt>
      <trkpt lat="46.34305" lon="-0.19375">
        <ele>133</ele>
        <time>2009-03-19T09:41:51Z</time>
      </trkpt>
      <trkpt lat="46.3429" lon="-0.19397">
        <ele>133</ele>
        <time>2009-03-19T09:41:56Z</time>
      </trkpt>
      <trkpt lat="46.34276" lon="-0.19421">
        <ele>132</ele>
        <time>2009-03-19T09:42:01Z</time>
      </trkpt>
      <trkpt lat="46.34264" lon="-0.19444">
        <ele>132</ele>
        <time>2009-03-19T09:42:06Z</time>
      </trkpt>
      <trkpt lat="46.34249" lon="-0.19456">
        <ele>135</ele>
        <time>2009-03-19T09:42:11Z</time>
      </trkpt>
      <trkpt lat="46.3423" lon="-0.19465">
        <ele>135</ele>
        <time>2009-03-19T09:42:16Z</time>
      </trkpt>
      <trkpt lat="46.34215" lon="-0.1947">
        <ele>136</ele>
        <time>2009-03-19T09:42:21Z</time>
      </trkpt>
      <trkpt lat="46.34202" lon="-0.19475">
        <ele>136</ele>
        <time>2009-03-19T09:42:26Z</time>
      </trkpt>
      <trkpt lat="46.34189" lon="-0.19483">
        <ele>136</ele>
        <time>2009-03-19T09:42:31Z</time>
      </trkpt>
      <trkpt lat="46.34174" lon="-0.19498">
        <ele>137</ele>
        <time>2009-03-19T09:42:36Z</time>
      </trkpt>
      <trkpt lat="46.3416" lon="-0.19518">
        <ele>137</ele>
        <time>2009-03-19T09:42:41Z</time>
      </trkpt>
      <trkpt lat="46.34145" lon="-0.19538">
        <ele>137</ele>
        <time>2009-03-19T09:42:46Z</time>
      </trkpt>
      <trkpt lat="46.3413" lon="-0.19558">
        <ele>136</ele>
        <time>2009-03-19T09:42:51Z</time>
      </trkpt>
      <trkpt lat="46.34114" lon="-0.19573">
        <ele>136</ele>
        <time>2009-03-19T09:42:56Z</time>
      </trkpt>
      <trkpt lat="46.34097" lon="-0.19596">
        <ele>133</ele>
        <time>2009-03-19T09:43:01Z</time>
      </trkpt>
      <trkpt lat="46.34078" lon="-0.1962">
        <ele>132</ele>
        <time>2009-03-19T09:43:06Z</time>
      </trkpt>
      <trkpt lat="46.34051" lon="-0.19629">
        <ele>132</ele>
        <time>2009-03-19T09:43:11Z</time>
      </trkpt>
      <trkpt lat="46.34027" lon="-0.19643">
        <ele>131</ele>
        <time>2009-03-19T09:43:16Z</time>
      </trkpt>
      <trkpt lat="46.3401" lon="-0.19667">
        <ele>129</ele>
        <time>2009-03-19T09:43:21Z</time>
      </trkpt>
      <trkpt lat="46.33998" lon="-0.19698">
        <ele>127</ele>
        <time>2009-03-19T09:43:26Z</time>
      </trkpt>
      <trkpt lat="46.33977" lon="-0.19725">
        <ele>126</ele>
        <time>2009-03-19T09:43:31Z</time>
      </trkpt>
      <trkpt lat="46.33949" lon="-0.1974">
        <ele>125</ele>
        <time>2009-03-19T09:43:36Z</time>
      </trkpt>
      <trkpt lat="46.3393" lon="-0.19745">
        <ele>124</ele>
        <time>2009-03-19T09:43:41Z</time>
      </trkpt>
      <trkpt lat="46.33911" lon="-0.19748">
        <ele>123</ele>
        <time>2009-03-19T09:43:46Z</time>
      </trkpt>
      <trkpt lat="46.33881" lon="-0.19755">
        <ele>120</ele>
        <time>2009-03-19T09:43:51Z</time>
      </trkpt>
      <trkpt lat="46.33857" lon="-0.19758">
        <ele>119</ele>
        <time>2009-03-19T09:43:56Z</time>
      </trkpt>
      <trkpt lat="46.33841" lon="-0.19744">
        <ele>120</ele>
        <time>2009-03-19T09:44:01Z</time>
      </trkpt>
      <trkpt lat="46.33824" lon="-0.19738">
        <ele>119</ele>
        <time>2009-03-19T09:44:06Z</time>
      </trkpt>
      <trkpt lat="46.33819" lon="-0.19723">
        <ele>119</ele>
        <time>2009-03-19T09:44:11Z</time>
      </trkpt>
      <trkpt lat="46.33815" lon="-0.19698">
        <ele>120</ele>
        <time>2009-03-19T09:44:16Z</time>
      </trkpt>
      <trkpt lat="46.33808" lon="-0.19676">
        <ele>120</ele>
        <time>2009-03-19T09:44:21Z</time>
      </trkpt>
      <trkpt lat="46.33796" lon="-0.19653">
        <ele>121</ele>
        <time>2009-03-19T09:44:26Z</time>
      </trkpt>
      <trkpt lat="46.33784" lon="-0.19633">
        <ele>121</ele>
        <time>2009-03-19T09:44:31Z</time>
      </trkpt>
      <trkpt lat="46.33774" lon="-0.19612">
        <ele>121</ele>
        <time>2009-03-19T09:44:36Z</time>
      </trkpt>
      <trkpt lat="46.33763" lon="-0.19594">
        <ele>121</ele>
        <time>2009-03-19T09:44:41Z</time>
      </trkpt>
      <trkpt lat="46.33754" lon="-0.19576">
        <ele>122</ele>
        <time>2009-03-19T09:44:46Z</time>
      </trkpt>
      <trkpt lat="46.33744" lon="-0.19558">
        <ele>122</ele>
        <time>2009-03-19T09:44:51Z</time>
      </trkpt>
      <trkpt lat="46.33734" lon="-0.19538">
        <ele>123</ele>
        <time>2009-03-19T09:44:56Z</time>
      </trkpt>
      <trkpt lat="46.33723" lon="-0.19521">
        <ele>123</ele>
        <time>2009-03-19T09:45:01Z</time>
      </trkpt>
      <trkpt lat="46.33713" lon="-0.195">
        <ele>125</ele>
        <time>2009-03-19T09:45:06Z</time>
      </trkpt>
      <trkpt lat="46.33699" lon="-0.1948">
        <ele>124</ele>
        <time>2009-03-19T09:45:11Z</time>
      </trkpt>
      <trkpt lat="46.33687" lon="-0.19467">
        <ele>124</ele>
        <time>2009-03-19T09:45:16Z</time>
      </trkpt>
      <trkpt lat="46.33676" lon="-0.19451">
        <ele>124</ele>
        <time>2009-03-19T09:45:21Z</time>
      </trkpt>
      <trkpt lat="46.33663" lon="-0.19435">
        <ele>122</ele>
        <time>2009-03-19T09:45:26Z</time>
      </trkpt>
      <trkpt lat="46.33652" lon="-0.19418">
        <ele>122</ele>
        <time>2009-03-19T09:45:31Z</time>
      </trkpt>
      <trkpt lat="46.33645" lon="-0.19402">
        <ele>122</ele>
        <time>2009-03-19T09:45:36Z</time>
      </trkpt>
      <trkpt lat="46.33638" lon="-0.1939">
        <ele>123</ele>
        <time>2009-03-19T09:45:41Z</time>
      </trkpt>
      <trkpt lat="46.33633" lon="-0.1938">
        <ele>123</ele>
        <time>2009-03-19T09:45:46Z</time>
      </trkpt>
      <trkpt lat="46.33629" lon="-0.19369">
        <ele>123</ele>
        <time>2009-03-19T09:45:51Z</time>
      </trkpt>
      <trkpt lat="46.33625" lon="-0.19356">
        <ele>123</ele>
        <time>2009-03-19T09:45:56Z</time>
      </trkpt>
      <trkpt lat="46.33614" lon="-0.1934">
        <ele>123</ele>
        <time>2009-03-19T09:46:01Z</time>
      </trkpt>
      <trkpt lat="46.33605" lon="-0.19324">
        <ele>125</ele>
        <time>2009-03-19T09:46:06Z</time>
      </trkpt>
      <trkpt lat="46.33595" lon="-0.19311">
        <ele>125</ele>
        <time>2009-03-19T09:46:11Z</time>
      </trkpt>
      <trkpt lat="46.33587" lon="-0.19299">
        <ele>125</ele>
        <time>2009-03-19T09:46:16Z</time>
      </trkpt>
      <trkpt lat="46.33577" lon="-0.19285">
        <ele>125</ele>
        <time>2009-03-19T09:46:21Z</time>
      </trkpt>
      <trkpt lat="46.33568" lon="-0.19273">
        <ele>125</ele>
        <time>2009-03-19T09:46:26Z</time>
      </trkpt>
      <trkpt lat="46.33563" lon="-0.19258">
        <ele>125</ele>
        <time>2009-03-19T09:46:31Z</time>
      </trkpt>
      <trkpt lat="46.33558" lon="-0.19243">
        <ele>126</ele>
        <time>2009-03-19T09:46:36Z</time>
      </trkpt>
      <trkpt lat="46.33548" lon="-0.19225">
        <ele>126</ele>
        <time>2009-03-19T09:46:41Z</time>
      </trkpt>
      <trkpt lat="46.33538" lon="-0.19211">
        <ele>126</ele>
        <time>2009-03-19T09:46:46Z</time>
      </trkpt>
      <trkpt lat="46.33528" lon="-0.19196">
        <ele>126</ele>
        <time>2009-03-19T09:46:51Z</time>
      </trkpt>
      <trkpt lat="46.33515" lon="-0.19181">
        <ele>126</ele>
        <time>2009-03-19T09:46:56Z</time>
      </trkpt>
      <trkpt lat="46.335" lon="-0.19166">
        <ele>125</ele>
        <time>2009-03-19T09:47:01Z</time>
      </trkpt>
      <trkpt lat="46.33496" lon="-0.19159">
        <ele>125</ele>
        <time>2009-03-19T09:47:06Z</time>
      </trkpt>
      <trkpt lat="46.3349" lon="-0.19149">
        <ele>126</ele>
        <time>2009-03-19T09:47:11Z</time>
      </trkpt>
      <trkpt lat="46.33482" lon="-0.19135">
        <ele>126</ele>
        <time>2009-03-19T09:47:16Z</time>
      </trkpt>
      <trkpt lat="46.33475" lon="-0.19122">
        <ele>127</ele>
        <time>2009-03-19T09:47:21Z</time>
      </trkpt>
      <trkpt lat="46.33465" lon="-0.19112">
        <ele>127</ele>
        <time>2009-03-19T09:47:26Z</time>
      </trkpt>
      <trkpt lat="46.33456" lon="-0.19105">
        <ele>127</ele>
        <time>2009-03-19T09:47:31Z</time>
      </trkpt>
      <trkpt lat="46.33446" lon="-0.19099">
        <ele>128</ele>
        <time>2009-03-19T09:47:36Z</time>
      </trkpt>
      <trkpt lat="46.33436" lon="-0.19089">
        <ele>128</ele>
        <time>2009-03-19T09:47:41Z</time>
      </trkpt>
      <trkpt lat="46.33427" lon="-0.19078">
        <ele>130</ele>
        <time>2009-03-19T09:47:46Z</time>
      </trkpt>
      <trkpt lat="46.33416" lon="-0.19065">
        <ele>129</ele>
        <time>2009-03-19T09:47:51Z</time>
      </trkpt>
      <trkpt lat="46.33405" lon="-0.19052">
        <ele>129</ele>
        <time>2009-03-19T09:47:56Z</time>
      </trkpt>
      <trkpt lat="46.33395" lon="-0.19039">
        <ele>129</ele>
        <time>2009-03-19T09:48:01Z</time>
      </trkpt>
      <trkpt lat="46.33383" lon="-0.19024">
        <ele>129</ele>
        <time>2009-03-19T09:48:06Z</time>
      </trkpt>
      <trkpt lat="46.33372" lon="-0.19018">
        <ele>129</ele>
        <time>2009-03-19T09:48:11Z</time>
      </trkpt>
      <trkpt lat="46.33374" lon="-0.19037">
        <ele>129</ele>
        <time>2009-03-19T09:48:16Z</time>
      </trkpt>
      <trkpt lat="46.33366" lon="-0.19068">
        <ele>128</ele>
        <time>2009-03-19T09:48:21Z</time>
      </trkpt>
      <trkpt lat="46.33348" lon="-0.19099">
        <ele>126</ele>
        <time>2009-03-19T09:48:26Z</time>
      </trkpt>
      <trkpt lat="46.33329" lon="-0.19127">
        <ele>125</ele>
        <time>2009-03-19T09:48:31Z</time>
      </trkpt>
      <trkpt lat="46.33316" lon="-0.19149">
        <ele>125</ele>
        <time>2009-03-19T09:48:36Z</time>
      </trkpt>
      <trkpt lat="46.33306" lon="-0.1917">
        <ele>127</ele>
        <time>2009-03-19T09:48:41Z</time>
      </trkpt>
      <trkpt lat="46.333" lon="-0.19188">
        <ele>128</ele>
        <time>2009-03-19T09:48:46Z</time>
      </trkpt>
      <trkpt lat="46.33291" lon="-0.19205">
        <ele>128</ele>
        <time>2009-03-19T09:48:51Z</time>
      </trkpt>
      <trkpt lat="46.3328" lon="-0.19221">
        <ele>129</ele>
        <time>2009-03-19T09:48:56Z</time>
      </trkpt>
      <trkpt lat="46.3327" lon="-0.19236">
        <ele>130</ele>
        <time>2009-03-19T09:49:01Z</time>
      </trkpt>
      <trkpt lat="46.33258" lon="-0.19251">
        <ele>133</ele>
        <time>2009-03-19T09:49:06Z</time>
      </trkpt>
      <trkpt lat="46.33245" lon="-0.19267">
        <ele>135</ele>
        <time>2009-03-19T09:49:11Z</time>
      </trkpt>
      <trkpt lat="46.33233" lon="-0.19281">
        <ele>136</ele>
        <time>2009-03-19T09:49:16Z</time>
      </trkpt>
      <trkpt lat="46.33222" lon="-0.19296">
        <ele>137</ele>
        <time>2009-03-19T09:49:21Z</time>
      </trkpt>
      <trkpt lat="46.3321" lon="-0.19314">
        <ele>138</ele>
        <time>2009-03-19T09:49:26Z</time>
      </trkpt>
      <trkpt lat="46.33201" lon="-0.19334">
        <ele>142</ele>
        <time>2009-03-19T09:49:31Z</time>
      </trkpt>
      <trkpt lat="46.33201" lon="-0.19358">
        <ele>142</ele>
        <time>2009-03-19T09:49:36Z</time>
      </trkpt>
      <trkpt lat="46.33205" lon="-0.19376">
        <ele>143</ele>
        <time>2009-03-19T09:49:41Z</time>
      </trkpt>
      <trkpt lat="46.33208" lon="-0.19393">
        <ele>143</ele>
        <time>2009-03-19T09:49:46Z</time>
      </trkpt>
      <trkpt lat="46.3321" lon="-0.19408">
        <ele>143</ele>
        <time>2009-03-19T09:49:51Z</time>
      </trkpt>
      <trkpt lat="46.33212" lon="-0.19424">
        <ele>146</ele>
        <time>2009-03-19T09:49:56Z</time>
      </trkpt>
      <trkpt lat="46.33214" lon="-0.19439">
        <ele>146</ele>
        <time>2009-03-19T09:50:01Z</time>
      </trkpt>
      <trkpt lat="46.33214" lon="-0.19457">
        <ele>146</ele>
        <time>2009-03-19T09:50:06Z</time>
      </trkpt>
      <trkpt lat="46.33215" lon="-0.19473">
        <ele>147</ele>
        <time>2009-03-19T09:50:11Z</time>
      </trkpt>
      <trkpt lat="46.33216" lon="-0.19489">
        <ele>147</ele>
        <time>2009-03-19T09:50:16Z</time>
      </trkpt>
      <trkpt lat="46.33216" lon="-0.19506">
        <ele>148</ele>
        <time>2009-03-19T09:50:21Z</time>
      </trkpt>
      <trkpt lat="46.33216" lon="-0.19523">
        <ele>148</ele>
        <time>2009-03-19T09:50:26Z</time>
      </trkpt>
      <trkpt lat="46.33218" lon="-0.19541">
        <ele>148</ele>
        <time>2009-03-19T09:50:31Z</time>
      </trkpt>
      <trkpt lat="46.33222" lon="-0.19562">
        <ele>148</ele>
        <time>2009-03-19T09:50:36Z</time>
      </trkpt>
      <trkpt lat="46.33226" lon="-0.19584">
        <ele>148</ele>
        <time>2009-03-19T09:50:41Z</time>
      </trkpt>
      <trkpt lat="46.33225" lon="-0.19607">
        <ele>147</ele>
        <time>2009-03-19T09:50:46Z</time>
      </trkpt>
      <trkpt lat="46.33208" lon="-0.19628">
        <ele>147</ele>
        <time>2009-03-19T09:50:51Z</time>
      </trkpt>
      <trkpt lat="46.33186" lon="-0.1965">
        <ele>146</ele>
        <time>2009-03-19T09:50:56Z</time>
      </trkpt>
      <trkpt lat="46.33168" lon="-0.19681">
        <ele>144</ele>
        <time>2009-03-19T09:51:01Z</time>
      </trkpt>
      <trkpt lat="46.33137" lon="-0.19703">
        <ele>142</ele>
        <time>2009-03-19T09:51:06Z</time>
      </trkpt>
      <trkpt lat="46.33106" lon="-0.19705">
        <ele>142</ele>
        <time>2009-03-19T09:51:11Z</time>
      </trkpt>
      <trkpt lat="46.33078" lon="-0.19698">
        <ele>142</ele>
        <time>2009-03-19T09:51:16Z</time>
      </trkpt>
      <trkpt lat="46.33052" lon="-0.197">
        <ele>142</ele>
        <time>2009-03-19T09:51:21Z</time>
      </trkpt>
      <trkpt lat="46.33027" lon="-0.19697">
        <ele>142</ele>
        <time>2009-03-19T09:51:26Z</time>
      </trkpt>
      <trkpt lat="46.33008" lon="-0.19691">
        <ele>143</ele>
        <time>2009-03-19T09:51:31Z</time>
      </trkpt>
      <trkpt lat="46.32988" lon="-0.19679">
        <ele>143</ele>
        <time>2009-03-19T09:51:36Z</time>
      </trkpt>
      <trkpt lat="46.32967" lon="-0.19666">
        <ele>144</ele>
        <time>2009-03-19T09:51:41Z</time>
      </trkpt>
      <trkpt lat="46.32946" lon="-0.19657">
        <ele>144</ele>
        <time>2009-03-19T09:51:46Z</time>
      </trkpt>
      <trkpt lat="46.32925" lon="-0.19648">
        <ele>144</ele>
        <time>2009-03-19T09:51:51Z</time>
      </trkpt>
      <trkpt lat="46.32904" lon="-0.19631">
        <ele>143</ele>
        <time>2009-03-19T09:51:56Z</time>
      </trkpt>
      <trkpt lat="46.32888" lon="-0.19607">
        <ele>143</ele>
        <time>2009-03-19T09:52:01Z</time>
      </trkpt>
      <trkpt lat="46.32875" lon="-0.19583">
        <ele>144</ele>
        <time>2009-03-19T09:52:06Z</time>
      </trkpt>
      <trkpt lat="46.32862" lon="-0.19558">
        <ele>144</ele>
        <time>2009-03-19T09:52:11Z</time>
      </trkpt>
      <trkpt lat="46.32846" lon="-0.19532">
        <ele>145</ele>
        <time>2009-03-19T09:52:16Z</time>
      </trkpt>
      <trkpt lat="46.32825" lon="-0.19508">
        <ele>145</ele>
        <time>2009-03-19T09:52:21Z</time>
      </trkpt>
      <trkpt lat="46.32801" lon="-0.19494">
        <ele>146</ele>
        <time>2009-03-19T09:52:26Z</time>
      </trkpt>
      <trkpt lat="46.3278" lon="-0.19475">
        <ele>146</ele>
        <time>2009-03-19T09:52:31Z</time>
      </trkpt>
      <trkpt lat="46.32762" lon="-0.19456">
        <ele>147</ele>
        <time>2009-03-19T09:52:36Z</time>
      </trkpt>
      <trkpt lat="46.32745" lon="-0.19439">
        <ele>148</ele>
        <time>2009-03-19T09:52:41Z</time>
      </trkpt>
      <trkpt lat="46.32731" lon="-0.19425">
        <ele>149</ele>
        <time>2009-03-19T09:52:46Z</time>
      </trkpt>
      <trkpt lat="46.32718" lon="-0.19409">
        <ele>150</ele>
        <time>2009-03-19T09:52:51Z</time>
      </trkpt>
      <trkpt lat="46.32709" lon="-0.19398">
        <ele>151</ele>
        <time>2009-03-19T09:52:56Z</time>
      </trkpt>
      <trkpt lat="46.32699" lon="-0.19379">
        <ele>151</ele>
        <time>2009-03-19T09:53:01Z</time>
      </trkpt>
      <trkpt lat="46.32685" lon="-0.19359">
        <ele>151</ele>
        <time>2009-03-19T09:53:06Z</time>
      </trkpt>
      <trkpt lat="46.3267" lon="-0.19337">
        <ele>153</ele>
        <time>2009-03-19T09:53:11Z</time>
      </trkpt>
      <trkpt lat="46.32652" lon="-0.19323">
        <ele>153</ele>
        <time>2009-03-19T09:53:16Z</time>
      </trkpt>
      <trkpt lat="46.32632" lon="-0.19315">
        <ele>153</ele>
        <time>2009-03-19T09:53:21Z</time>
      </trkpt>
      <trkpt lat="46.3261" lon="-0.19308">
        <ele>153</ele>
        <time>2009-03-19T09:53:26Z</time>
      </trkpt>
      <trkpt lat="46.32587" lon="-0.19303">
        <ele>153</ele>
        <time>2009-03-19T09:53:31Z</time>
      </trkpt>
      <trkpt lat="46.32563" lon="-0.19299">
        <ele>153</ele>
        <time>2009-03-19T09:53:36Z</time>
      </trkpt>
      <trkpt lat="46.32539" lon="-0.19298">
        <ele>153</ele>
        <time>2009-03-19T09:53:41Z</time>
      </trkpt>
      <trkpt lat="46.32514" lon="-0.19299">
        <ele>153</ele>
        <time>2009-03-19T09:53:46Z</time>
      </trkpt>
      <trkpt lat="46.32486" lon="-0.19296">
        <ele>153</ele>
        <time>2009-03-19T09:53:51Z</time>
      </trkpt>
      <trkpt lat="46.3246" lon="-0.19288">
        <ele>153</ele>
        <time>2009-03-19T09:53:56Z</time>
      </trkpt>
      <trkpt lat="46.32438" lon="-0.19279">
        <ele>153</ele>
        <time>2009-03-19T09:54:01Z</time>
      </trkpt>
      <trkpt lat="46.32421" lon="-0.19268">
        <ele>154</ele>
        <time>2009-03-19T09:54:06Z</time>
      </trkpt>
      <trkpt lat="46.32413" lon="-0.19246">
        <ele>154</ele>
        <time>2009-03-19T09:54:11Z</time>
      </trkpt>
      <trkpt lat="46.32418" lon="-0.19216">
        <ele>155</ele>
        <time>2009-03-19T09:54:16Z</time>
      </trkpt>
      <trkpt lat="46.32421" lon="-0.19183">
        <ele>155</ele>
        <time>2009-03-19T09:54:21Z</time>
      </trkpt>
      <trkpt lat="46.3242" lon="-0.19153">
        <ele>155</ele>
        <time>2009-03-19T09:54:26Z</time>
      </trkpt>
      <trkpt lat="46.32413" lon="-0.19123">
        <ele>155</ele>
        <time>2009-03-19T09:54:31Z</time>
      </trkpt>
      <trkpt lat="46.32406" lon="-0.19101">
        <ele>155</ele>
        <time>2009-03-19T09:54:36Z</time>
      </trkpt>
      <trkpt lat="46.32391" lon="-0.19097">
        <ele>155</ele>
        <time>2009-03-19T09:54:41Z</time>
      </trkpt>
      <trkpt lat="46.32372" lon="-0.19107">
        <ele>155</ele>
        <time>2009-03-19T09:54:46Z</time>
      </trkpt>
      <trkpt lat="46.32349" lon="-0.19106">
        <ele>155</ele>
        <time>2009-03-19T09:54:51Z</time>
      </trkpt>
      <trkpt lat="46.32328" lon="-0.19095">
        <ele>155</ele>
        <time>2009-03-19T09:54:56Z</time>
      </trkpt>
      <trkpt lat="46.32306" lon="-0.19091">
        <ele>155</ele>
        <time>2009-03-19T09:55:01Z</time>
      </trkpt>
      <trkpt lat="46.32283" lon="-0.19086">
        <ele>155</ele>
        <time>2009-03-19T09:55:06Z</time>
      </trkpt>
      <trkpt lat="46.32258" lon="-0.19082">
        <ele>155</ele>
        <time>2009-03-19T09:55:11Z</time>
      </trkpt>
      <trkpt lat="46.32233" lon="-0.19076">
        <ele>155</ele>
        <time>2009-03-19T09:55:16Z</time>
      </trkpt>
      <trkpt lat="46.32208" lon="-0.1907">
        <ele>155</ele>
        <time>2009-03-19T09:55:21Z</time>
      </trkpt>
      <trkpt lat="46.32181" lon="-0.19062">
        <ele>155</ele>
        <time>2009-03-19T09:55:26Z</time>
      </trkpt>
      <trkpt lat="46.32154" lon="-0.19052">
        <ele>155</ele>
        <time>2009-03-19T09:55:31Z</time>
      </trkpt>
      <trkpt lat="46.3213" lon="-0.19042">
        <ele>155</ele>
        <time>2009-03-19T09:55:36Z</time>
      </trkpt>
      <trkpt lat="46.32105" lon="-0.1903">
        <ele>155</ele>
        <time>2009-03-19T09:55:41Z</time>
      </trkpt>
      <trkpt lat="46.32079" lon="-0.19019">
        <ele>155</ele>
        <time>2009-03-19T09:55:46Z</time>
      </trkpt>
      <trkpt lat="46.32054" lon="-0.19007">
        <ele>155</ele>
        <time>2009-03-19T09:55:51Z</time>
      </trkpt>
      <trkpt lat="46.32029" lon="-0.18992">
        <ele>155</ele>
        <time>2009-03-19T09:55:56Z</time>
      </trkpt>
      <trkpt lat="46.32005" lon="-0.18977">
        <ele>155</ele>
        <time>2009-03-19T09:56:01Z</time>
      </trkpt>
      <trkpt lat="46.31982" lon="-0.18957">
        <ele>155</ele>
        <time>2009-03-19T09:56:06Z</time>
      </trkpt>
      <trkpt lat="46.31962" lon="-0.18925">
        <ele>155</ele>
        <time>2009-03-19T09:56:11Z</time>
      </trkpt>
      <trkpt lat="46.31943" lon="-0.18892">
        <ele>154</ele>
        <time>2009-03-19T09:56:16Z</time>
      </trkpt>
      <trkpt lat="46.3192" lon="-0.18859">
        <ele>154</ele>
        <time>2009-03-19T09:56:21Z</time>
      </trkpt>
      <trkpt lat="46.31898" lon="-0.1882">
        <ele>153</ele>
        <time>2009-03-19T09:56:26Z</time>
      </trkpt>
      <trkpt lat="46.31871" lon="-0.18782">
        <ele>152</ele>
        <time>2009-03-19T09:56:31Z</time>
      </trkpt>
      <trkpt lat="46.31847" lon="-0.18741">
        <ele>151</ele>
        <time>2009-03-19T09:56:36Z</time>
      </trkpt>
      <trkpt lat="46.31832" lon="-0.18696">
        <ele>152</ele>
        <time>2009-03-19T09:56:41Z</time>
      </trkpt>
      <trkpt lat="46.31809" lon="-0.18673">
        <ele>153</ele>
        <time>2009-03-19T09:56:46Z</time>
      </trkpt>
      <trkpt lat="46.3178" lon="-0.18684">
        <ele>154</ele>
        <time>2009-03-19T09:56:51Z</time>
      </trkpt>
      <trkpt lat="46.31753" lon="-0.18697">
        <ele>154</ele>
        <time>2009-03-19T09:56:56Z</time>
      </trkpt>
      <trkpt lat="46.31726" lon="-0.18696">
        <ele>156</ele>
        <time>2009-03-19T09:57:01Z</time>
      </trkpt>
      <trkpt lat="46.317" lon="-0.18682">
        <ele>157</ele>
        <time>2009-03-19T09:57:06Z</time>
      </trkpt>
      <trkpt lat="46.31671" lon="-0.18673">
        <ele>158</ele>
        <time>2009-03-19T09:57:11Z</time>
      </trkpt>
      <trkpt lat="46.31645" lon="-0.18662">
        <ele>158</ele>
        <time>2009-03-19T09:57:16Z</time>
      </trkpt>
      <trkpt lat="46.31624" lon="-0.18643">
        <ele>158</ele>
        <time>2009-03-19T09:57:21Z</time>
      </trkpt>
      <trkpt lat="46.31608" lon="-0.18624">
        <ele>157</ele>
        <time>2009-03-19T09:57:26Z</time>
      </trkpt>
      <trkpt lat="46.31605" lon="-0.18599">
        <ele>157</ele>
        <time>2009-03-19T09:57:31Z</time>
      </trkpt>
      <trkpt lat="46.31597" lon="-0.18566">
        <ele>156</ele>
        <time>2009-03-19T09:57:36Z</time>
      </trkpt>
      <trkpt lat="46.31577" lon="-0.18533">
        <ele>154</ele>
        <time>2009-03-19T09:57:41Z</time>
      </trkpt>
      <trkpt lat="46.31549" lon="-0.185">
        <ele>153</ele>
        <time>2009-03-19T09:57:46Z</time>
      </trkpt>
      <trkpt lat="46.31533" lon="-0.18479">
        <ele>151</ele>
        <time>2009-03-19T09:57:51Z</time>
      </trkpt>
      <trkpt lat="46.31521" lon="-0.18483">
        <ele>151</ele>
        <time>2009-03-19T09:57:56Z</time>
      </trkpt>
      <trkpt lat="46.3151" lon="-0.18492">
        <ele>150</ele>
        <time>2009-03-19T09:58:01Z</time>
      </trkpt>
      <trkpt lat="46.31499" lon="-0.185">
        <ele>149</ele>
        <time>2009-03-19T09:58:06Z</time>
      </trkpt>
      <trkpt lat="46.31491" lon="-0.18507">
        <ele>149</ele>
        <time>2009-03-19T09:58:11Z</time>
      </trkpt>
      <trkpt lat="46.3148" lon="-0.18518">
        <ele>148</ele>
        <time>2009-03-19T09:58:16Z</time>
      </trkpt>
      <trkpt lat="46.31469" lon="-0.18534">
        <ele>148</ele>
        <time>2009-03-19T09:58:21Z</time>
      </trkpt>
      <trkpt lat="46.3146" lon="-0.18551">
        <ele>148</ele>
        <time>2009-03-19T09:58:26Z</time>
      </trkpt>
      <trkpt lat="46.3145" lon="-0.18567">
        <ele>148</ele>
        <time>2009-03-19T09:58:31Z</time>
      </trkpt>
      <trkpt lat="46.31435" lon="-0.18577">
        <ele>148</ele>
        <time>2009-03-19T09:58:36Z</time>
      </trkpt>
      <trkpt lat="46.3142" lon="-0.18584">
        <ele>147</ele>
        <time>2009-03-19T09:58:41Z</time>
      </trkpt>
      <trkpt lat="46.31403" lon="-0.18592">
        <ele>147</ele>
        <time>2009-03-19T09:58:46Z</time>
      </trkpt>
      <trkpt lat="46.31389" lon="-0.18601">
        <ele>147</ele>
        <time>2009-03-19T09:58:51Z</time>
      </trkpt>
      <trkpt lat="46.31373" lon="-0.18611">
        <ele>147</ele>
        <time>2009-03-19T09:58:56Z</time>
      </trkpt>
      <trkpt lat="46.31357" lon="-0.18623">
        <ele>146</ele>
        <time>2009-03-19T09:59:01Z</time>
      </trkpt>
      <trkpt lat="46.31343" lon="-0.18637">
        <ele>146</ele>
        <time>2009-03-19T09:59:06Z</time>
      </trkpt>
      <trkpt lat="46.31331" lon="-0.1865">
        <ele>145</ele>
        <time>2009-03-19T09:59:11Z</time>
      </trkpt>
      <trkpt lat="46.31323" lon="-0.18646">
        <ele>145</ele>
        <time>2009-03-19T09:59:16Z</time>
      </trkpt>
      <trkpt lat="46.31317" lon="-0.18633">
        <ele>144</ele>
        <time>2009-03-19T09:59:21Z</time>
      </trkpt>
      <trkpt lat="46.3131" lon="-0.18617">
        <ele>144</ele>
        <time>2009-03-19T09:59:26Z</time>
      </trkpt>
      <trkpt lat="46.31305" lon="-0.18598">
        <ele>144</ele>
        <time>2009-03-19T09:59:31Z</time>
      </trkpt>
      <trkpt lat="46.31309" lon="-0.18575">
        <ele>144</ele>
        <time>2009-03-19T09:59:36Z</time>
      </trkpt>
      <trkpt lat="46.31306" lon="-0.18554">
        <ele>144</ele>
        <time>2009-03-19T09:59:41Z</time>
      </trkpt>
      <trkpt lat="46.31299" lon="-0.18534">
        <ele>144</ele>
        <time>2009-03-19T09:59:46Z</time>
      </trkpt>
      <trkpt lat="46.31294" lon="-0.18515">
        <ele>144</ele>
        <time>2009-03-19T09:59:51Z</time>
      </trkpt>
      <trkpt lat="46.31289" lon="-0.185">
        <ele>146</ele>
        <time>2009-03-19T09:59:56Z</time>
      </trkpt>
      <trkpt lat="46.31286" lon="-0.18485">
        <ele>146</ele>
        <time>2009-03-19T10:00:01Z</time>
      </trkpt>
      <trkpt lat="46.31281" lon="-0.18472">
        <ele>146</ele>
        <time>2009-03-19T10:00:06Z</time>
      </trkpt>
      <trkpt lat="46.31277" lon="-0.18459">
        <ele>147</ele>
        <time>2009-03-19T10:00:11Z</time>
      </trkpt>
      <trkpt lat="46.31274" lon="-0.18444">
        <ele>147</ele>
        <time>2009-03-19T10:00:16Z</time>
      </trkpt>
      <trkpt lat="46.31274" lon="-0.18427">
        <ele>148</ele>
        <time>2009-03-19T10:00:21Z</time>
      </trkpt>
      <trkpt lat="46.31271" lon="-0.18408">
        <ele>150</ele>
        <time>2009-03-19T10:00:26Z</time>
      </trkpt>
      <trkpt lat="46.31264" lon="-0.18394">
        <ele>150</ele>
        <time>2009-03-19T10:00:31Z</time>
      </trkpt>
      <trkpt lat="46.31255" lon="-0.18381">
        <ele>150</ele>
        <time>2009-03-19T10:00:36Z</time>
      </trkpt>
      <trkpt lat="46.31247" lon="-0.18376">
        <ele>151</ele>
        <time>2009-03-19T10:00:41Z</time>
      </trkpt>
      <trkpt lat="46.31236" lon="-0.18376">
        <ele>152</ele>
        <time>2009-03-19T10:00:46Z</time>
      </trkpt>
      <trkpt lat="46.31225" lon="-0.18377">
        <ele>152</ele>
        <time>2009-03-19T10:00:51Z</time>
      </trkpt>
      <trkpt lat="46.31215" lon="-0.18373">
        <ele>152</ele>
        <time>2009-03-19T10:00:56Z</time>
      </trkpt>
      <trkpt lat="46.31205" lon="-0.18364">
        <ele>152</ele>
        <time>2009-03-19T10:01:01Z</time>
      </trkpt>
      <trkpt lat="46.31196" lon="-0.18352">
        <ele>152</ele>
        <time>2009-03-19T10:01:06Z</time>
      </trkpt>
      <trkpt lat="46.31186" lon="-0.18343">
        <ele>153</ele>
        <time>2009-03-19T10:01:11Z</time>
      </trkpt>
      <trkpt lat="46.31174" lon="-0.18336">
        <ele>153</ele>
        <time>2009-03-19T10:01:16Z</time>
      </trkpt>
      <trkpt lat="46.31165" lon="-0.18319">
        <ele>155</ele>
        <time>2009-03-19T10:01:21Z</time>
      </trkpt>
      <trkpt lat="46.31163" lon="-0.18296">
        <ele>155</ele>
        <time>2009-03-19T10:01:26Z</time>
      </trkpt>
      <trkpt lat="46.31166" lon="-0.18264">
        <ele>155</ele>
        <time>2009-03-19T10:01:33Z</time>
      </trkpt>
      <trkpt lat="46.31164" lon="-0.18243">
        <ele>155</ele>
        <time>2009-03-19T10:01:38Z</time>
      </trkpt>
      <trkpt lat="46.31154" lon="-0.18224">
        <ele>155</ele>
        <time>2009-03-19T10:01:43Z</time>
      </trkpt>
      <trkpt lat="46.31141" lon="-0.1821">
        <ele>156</ele>
        <time>2009-03-19T10:01:48Z</time>
      </trkpt>
      <trkpt lat="46.31125" lon="-0.18215">
        <ele>156</ele>
        <time>2009-03-19T10:01:53Z</time>
      </trkpt>
      <trkpt lat="46.31109" lon="-0.18225">
        <ele>156</ele>
        <time>2009-03-19T10:01:58Z</time>
      </trkpt>
      <trkpt lat="46.3109" lon="-0.18239">
        <ele>157</ele>
        <time>2009-03-19T10:02:03Z</time>
      </trkpt>
      <trkpt lat="46.31069" lon="-0.18256">
        <ele>157</ele>
        <time>2009-03-19T10:02:08Z</time>
      </trkpt>
      <trkpt lat="46.31048" lon="-0.18273">
        <ele>157</ele>
        <time>2009-03-19T10:02:13Z</time>
      </trkpt>
      <trkpt lat="46.31025" lon="-0.18291">
        <ele>156</ele>
        <time>2009-03-19T10:02:18Z</time>
      </trkpt>
      <trkpt lat="46.31001" lon="-0.18311">
        <ele>156</ele>
        <time>2009-03-19T10:02:23Z</time>
      </trkpt>
      <trkpt lat="46.30985" lon="-0.18322">
        <ele>156</ele>
        <time>2009-03-19T10:02:26Z</time>
      </trkpt>
      <trkpt lat="46.30962" lon="-0.18334">
        <ele>155</ele>
        <time>2009-03-19T10:02:31Z</time>
      </trkpt>
      <trkpt lat="46.30938" lon="-0.18336">
        <ele>155</ele>
        <time>2009-03-19T10:02:36Z</time>
      </trkpt>
      <trkpt lat="46.30915" lon="-0.18337">
        <ele>155</ele>
        <time>2009-03-19T10:02:41Z</time>
      </trkpt>
      <trkpt lat="46.30892" lon="-0.18341">
        <ele>154</ele>
        <time>2009-03-19T10:02:46Z</time>
      </trkpt>
      <trkpt lat="46.30872" lon="-0.18351">
        <ele>153</ele>
        <time>2009-03-19T10:02:51Z</time>
      </trkpt>
      <trkpt lat="46.30859" lon="-0.18378">
        <ele>153</ele>
        <time>2009-03-19T10:02:56Z</time>
      </trkpt>
      <trkpt lat="46.30838" lon="-0.18398">
        <ele>153</ele>
        <time>2009-03-19T10:03:01Z</time>
      </trkpt>
      <trkpt lat="46.30818" lon="-0.18411">
        <ele>151</ele>
        <time>2009-03-19T10:03:06Z</time>
      </trkpt>
      <trkpt lat="46.30804" lon="-0.18434">
        <ele>151</ele>
        <time>2009-03-19T10:03:11Z</time>
      </trkpt>
      <trkpt lat="46.30788" lon="-0.18459">
        <ele>151</ele>
        <time>2009-03-19T10:03:16Z</time>
      </trkpt>
      <trkpt lat="46.30768" lon="-0.18475">
        <ele>151</ele>
        <time>2009-03-19T10:03:21Z</time>
      </trkpt>
      <trkpt lat="46.3075" lon="-0.18478">
        <ele>148</ele>
        <time>2009-03-19T10:03:26Z</time>
      </trkpt>
      <trkpt lat="46.30732" lon="-0.18481">
        <ele>148</ele>
        <time>2009-03-19T10:03:31Z</time>
      </trkpt>
      <trkpt lat="46.30711" lon="-0.18486">
        <ele>147</ele>
        <time>2009-03-19T10:03:36Z</time>
      </trkpt>
      <trkpt lat="46.30692" lon="-0.18496">
        <ele>145</ele>
        <time>2009-03-19T10:03:41Z</time>
      </trkpt>
      <trkpt lat="46.30685" lon="-0.18519">
        <ele>145</ele>
        <time>2009-03-19T10:03:46Z</time>
      </trkpt>
      <trkpt lat="46.3068" lon="-0.18546">
        <ele>145</ele>
        <time>2009-03-19T10:03:51Z</time>
      </trkpt>
      <trkpt lat="46.30674" lon="-0.18575">
        <ele>145</ele>
        <time>2009-03-19T10:03:56Z</time>
      </trkpt>
      <trkpt lat="46.3067" lon="-0.18608">
        <ele>143</ele>
        <time>2009-03-19T10:04:01Z</time>
      </trkpt>
      <trkpt lat="46.30666" lon="-0.18634">
        <ele>140</ele>
        <time>2009-03-19T10:04:06Z</time>
      </trkpt>
      <trkpt lat="46.30655" lon="-0.18646">
        <ele>140</ele>
        <time>2009-03-19T10:04:11Z</time>
      </trkpt>
      <trkpt lat="46.30642" lon="-0.18652">
        <ele>140</ele>
        <time>2009-03-19T10:04:16Z</time>
      </trkpt>
      <trkpt lat="46.30631" lon="-0.18658">
        <ele>139</ele>
        <time>2009-03-19T10:04:21Z</time>
      </trkpt>
      <trkpt lat="46.30615" lon="-0.18673">
        <ele>137</ele>
        <time>2009-03-19T10:04:26Z</time>
      </trkpt>
      <trkpt lat="46.30596" lon="-0.18693">
        <ele>137</ele>
        <time>2009-03-19T10:04:31Z</time>
      </trkpt>
      <trkpt lat="46.30573" lon="-0.18709">
        <ele>135</ele>
        <time>2009-03-19T10:04:36Z</time>
      </trkpt>
      <trkpt lat="46.30557" lon="-0.18713">
        <ele>135</ele>
        <time>2009-03-19T10:04:41Z</time>
      </trkpt>
      <trkpt lat="46.3054" lon="-0.18723">
        <ele>135</ele>
        <time>2009-03-19T10:04:46Z</time>
      </trkpt>
      <trkpt lat="46.30524" lon="-0.18737">
        <ele>135</ele>
        <time>2009-03-19T10:04:51Z</time>
      </trkpt>
      <trkpt lat="46.30507" lon="-0.18749">
        <ele>134</ele>
        <time>2009-03-19T10:04:56Z</time>
      </trkpt>
      <trkpt lat="46.30491" lon="-0.18755">
        <ele>134</ele>
        <time>2009-03-19T10:05:01Z</time>
      </trkpt>
      <trkpt lat="46.30476" lon="-0.1876">
        <ele>134</ele>
        <time>2009-03-19T10:05:06Z</time>
      </trkpt>
      <trkpt lat="46.30461" lon="-0.18762">
        <ele>135</ele>
        <time>2009-03-19T10:05:11Z</time>
      </trkpt>
      <trkpt lat="46.30448" lon="-0.18758">
        <ele>135</ele>
        <time>2009-03-19T10:05:16Z</time>
      </trkpt>
      <trkpt lat="46.3043" lon="-0.1876">
        <ele>136</ele>
        <time>2009-03-19T10:05:21Z</time>
      </trkpt>
      <trkpt lat="46.30414" lon="-0.18762">
        <ele>137</ele>
        <time>2009-03-19T10:05:26Z</time>
      </trkpt>
      <trkpt lat="46.30399" lon="-0.18769">
        <ele>137</ele>
        <time>2009-03-19T10:05:31Z</time>
      </trkpt>
      <trkpt lat="46.30384" lon="-0.18777">
        <ele>137</ele>
        <time>2009-03-19T10:05:36Z</time>
      </trkpt>
      <trkpt lat="46.30368" lon="-0.18785">
        <ele>137</ele>
        <time>2009-03-19T10:05:41Z</time>
      </trkpt>
      <trkpt lat="46.3036" lon="-0.1879">
        <ele>137</ele>
        <time>2009-03-19T10:05:46Z</time>
      </trkpt>
      <trkpt lat="46.30347" lon="-0.18801">
        <ele>136</ele>
        <time>2009-03-19T10:05:51Z</time>
      </trkpt>
      <trkpt lat="46.30331" lon="-0.18812">
        <ele>137</ele>
        <time>2009-03-19T10:05:56Z</time>
      </trkpt>
      <trkpt lat="46.30311" lon="-0.18824">
        <ele>138</ele>
        <time>2009-03-19T10:06:01Z</time>
      </trkpt>
      <trkpt lat="46.30289" lon="-0.18836">
        <ele>136</ele>
        <time>2009-03-19T10:06:06Z</time>
      </trkpt>
      <trkpt lat="46.30269" lon="-0.18853">
        <ele>136</ele>
        <time>2009-03-19T10:06:11Z</time>
      </trkpt>
      <trkpt lat="46.30249" lon="-0.18867">
        <ele>138</ele>
        <time>2009-03-19T10:06:16Z</time>
      </trkpt>
      <trkpt lat="46.30228" lon="-0.18884">
        <ele>138</ele>
        <time>2009-03-19T10:06:21Z</time>
      </trkpt>
      <trkpt lat="46.30207" lon="-0.189">
        <ele>138</ele>
        <time>2009-03-19T10:06:26Z</time>
      </trkpt>
      <trkpt lat="46.30189" lon="-0.18915">
        <ele>139</ele>
        <time>2009-03-19T10:06:31Z</time>
      </trkpt>
      <trkpt lat="46.30173" lon="-0.18925">
        <ele>137</ele>
        <time>2009-03-19T10:06:36Z</time>
      </trkpt>
      <trkpt lat="46.30155" lon="-0.18948">
        <ele>136</ele>
        <time>2009-03-19T10:06:41Z</time>
      </trkpt>
      <trkpt lat="46.30136" lon="-0.18978">
        <ele>135</ele>
        <time>2009-03-19T10:06:46Z</time>
      </trkpt>
      <trkpt lat="46.30117" lon="-0.19014">
        <ele>133</ele>
        <time>2009-03-19T10:06:51Z</time>
      </trkpt>
      <trkpt lat="46.30093" lon="-0.19016">
        <ele>134</ele>
        <time>2009-03-19T10:06:56Z</time>
      </trkpt>
      <trkpt lat="46.30073" lon="-0.19008">
        <ele>134</ele>
        <time>2009-03-19T10:07:01Z</time>
      </trkpt>
      <trkpt lat="46.30051" lon="-0.19013">
        <ele>133</ele>
        <time>2009-03-19T10:07:06Z</time>
      </trkpt>
      <trkpt lat="46.30027" lon="-0.19017">
        <ele>132</ele>
        <time>2009-03-19T10:07:11Z</time>
      </trkpt>
      <trkpt lat="46.30001" lon="-0.19022">
        <ele>132</ele>
        <time>2009-03-19T10:07:16Z</time>
      </trkpt>
      <trkpt lat="46.29979" lon="-0.19043">
        <ele>131</ele>
        <time>2009-03-19T10:07:21Z</time>
      </trkpt>
      <trkpt lat="46.2997" lon="-0.19062">
        <ele>130</ele>
        <time>2009-03-19T10:07:26Z</time>
      </trkpt>
      <trkpt lat="46.29966" lon="-0.19089">
        <ele>128</ele>
        <time>2009-03-19T10:07:31Z</time>
      </trkpt>
      <trkpt lat="46.29962" lon="-0.19119">
        <ele>128</ele>
        <time>2009-03-19T10:07:36Z</time>
      </trkpt>
      <trkpt lat="46.29958" lon="-0.19153">
        <ele>127</ele>
        <time>2009-03-19T10:07:41Z</time>
      </trkpt>
      <trkpt lat="46.29961" lon="-0.1919">
        <ele>127</ele>
        <time>2009-03-19T10:07:46Z</time>
      </trkpt>
      <trkpt lat="46.29979" lon="-0.19214">
        <ele>127</ele>
        <time>2009-03-19T10:07:51Z</time>
      </trkpt>
      <trkpt lat="46.29986" lon="-0.19247">
        <ele>127</ele>
        <time>2009-03-19T10:07:56Z</time>
      </trkpt>
      <trkpt lat="46.29979" lon="-0.19288">
        <ele>126</ele>
        <time>2009-03-19T10:08:01Z</time>
      </trkpt>
      <trkpt lat="46.29969" lon="-0.19336">
        <ele>124</ele>
        <time>2009-03-19T10:08:06Z</time>
      </trkpt>
      <trkpt lat="46.29957" lon="-0.19393">
        <ele>124</ele>
        <time>2009-03-19T10:08:11Z</time>
      </trkpt>
      <trkpt lat="46.29934" lon="-0.19458">
        <ele>122</ele>
        <time>2009-03-19T10:08:16Z</time>
      </trkpt>
      <trkpt lat="46.29897" lon="-0.19501">
        <ele>119</ele>
        <time>2009-03-19T10:08:21Z</time>
      </trkpt>
      <trkpt lat="46.29863" lon="-0.19535">
        <ele>118</ele>
        <time>2009-03-19T10:08:26Z</time>
      </trkpt>
      <trkpt lat="46.29832" lon="-0.19557">
        <ele>116</ele>
        <time>2009-03-19T10:08:31Z</time>
      </trkpt>
      <trkpt lat="46.29819" lon="-0.19573">
        <ele>115</ele>
        <time>2009-03-19T10:08:36Z</time>
      </trkpt>
      <trkpt lat="46.29818" lon="-0.19574">
        <ele>115</ele>
        <time>2009-03-19T10:08:41Z</time>
      </trkpt>
      <trkpt lat="46.29816" lon="-0.19577">
        <ele>115</ele>
        <time>2009-03-19T10:08:46Z</time>
      </trkpt>
      <trkpt lat="46.29813" lon="-0.19582">
        <ele>115</ele>
        <time>2009-03-19T10:08:51Z</time>
      </trkpt>
      <trkpt lat="46.29811" lon="-0.19604">
        <ele>116</ele>
        <time>2009-03-19T10:08:56Z</time>
      </trkpt>
      <trkpt lat="46.29802" lon="-0.19637">
        <ele>117</ele>
        <time>2009-03-19T10:09:01Z</time>
      </trkpt>
      <trkpt lat="46.29788" lon="-0.19659">
        <ele>116</ele>
        <time>2009-03-19T10:09:06Z</time>
      </trkpt>
      <trkpt lat="46.2977" lon="-0.19666">
        <ele>115</ele>
        <time>2009-03-19T10:09:11Z</time>
      </trkpt>
      <trkpt lat="46.29753" lon="-0.19676">
        <ele>116</ele>
        <time>2009-03-19T10:09:16Z</time>
      </trkpt>
      <trkpt lat="46.29741" lon="-0.19699">
        <ele>114</ele>
        <time>2009-03-19T10:09:21Z</time>
      </trkpt>
      <trkpt lat="46.29727" lon="-0.19725">
        <ele>115</ele>
        <time>2009-03-19T10:09:26Z</time>
      </trkpt>
      <trkpt lat="46.29712" lon="-0.19751">
        <ele>117</ele>
        <time>2009-03-19T10:09:31Z</time>
      </trkpt>
      <trkpt lat="46.29698" lon="-0.19778">
        <ele>117</ele>
        <time>2009-03-19T10:09:36Z</time>
      </trkpt>
      <trkpt lat="46.29684" lon="-0.19805">
        <ele>117</ele>
        <time>2009-03-19T10:09:41Z</time>
      </trkpt>
      <trkpt lat="46.2967" lon="-0.19836">
        <ele>117</ele>
        <time>2009-03-19T10:09:46Z</time>
      </trkpt>
      <trkpt lat="46.29657" lon="-0.19868">
        <ele>116</ele>
        <time>2009-03-19T10:09:51Z</time>
      </trkpt>
      <trkpt lat="46.2965" lon="-0.199">
        <ele>117</ele>
        <time>2009-03-19T10:09:56Z</time>
      </trkpt>
      <trkpt lat="46.29644" lon="-0.19935">
        <ele>117</ele>
        <time>2009-03-19T10:10:01Z</time>
      </trkpt>
      <trkpt lat="46.29642" lon="-0.19971">
        <ele>117</ele>
        <time>2009-03-19T10:10:06Z</time>
      </trkpt>
      <trkpt lat="46.29646" lon="-0.20005">
        <ele>117</ele>
        <time>2009-03-19T10:10:11Z</time>
      </trkpt>
      <trkpt lat="46.29646" lon="-0.20047">
        <ele>116</ele>
        <time>2009-03-19T10:10:16Z</time>
      </trkpt>
      <trkpt lat="46.29653" lon="-0.20086">
        <ele>117</ele>
        <time>2009-03-19T10:10:21Z</time>
      </trkpt>
      <trkpt lat="46.29665" lon="-0.20121">
        <ele>115</ele>
        <time>2009-03-19T10:10:26Z</time>
      </trkpt>
      <trkpt lat="46.29681" lon="-0.20154">
        <ele>119</ele>
        <time>2009-03-19T10:10:31Z</time>
      </trkpt>
      <trkpt lat="46.29699" lon="-0.20187">
        <ele>117</ele>
        <time>2009-03-19T10:10:36Z</time>
      </trkpt>
      <trkpt lat="46.29718" lon="-0.20219">
        <ele>117</ele>
        <time>2009-03-19T10:10:41Z</time>
      </trkpt>
      <trkpt lat="46.29738" lon="-0.20252">
        <ele>116</ele>
        <time>2009-03-19T10:10:46Z</time>
      </trkpt>
      <trkpt lat="46.2976" lon="-0.20283">
        <ele>119</ele>
        <time>2009-03-19T10:10:51Z</time>
      </trkpt>
      <trkpt lat="46.29784" lon="-0.20304">
        <ele>119</ele>
        <time>2009-03-19T10:10:56Z</time>
      </trkpt>
      <trkpt lat="46.29805" lon="-0.20321">
        <ele>120</ele>
        <time>2009-03-19T10:11:01Z</time>
      </trkpt>
      <trkpt lat="46.29821" lon="-0.20341">
        <ele>118</ele>
        <time>2009-03-19T10:11:06Z</time>
      </trkpt>
      <trkpt lat="46.29837" lon="-0.2038">
        <ele>120</ele>
        <time>2009-03-19T10:11:11Z</time>
      </trkpt>
      <trkpt lat="46.29862" lon="-0.20413">
        <ele>120</ele>
        <time>2009-03-19T10:11:16Z</time>
      </trkpt>
      <trkpt lat="46.29886" lon="-0.20436">
        <ele>118</ele>
        <time>2009-03-19T10:11:21Z</time>
      </trkpt>
      <trkpt lat="46.29908" lon="-0.20465">
        <ele>117</ele>
        <time>2009-03-19T10:11:26Z</time>
      </trkpt>
      <trkpt lat="46.29922" lon="-0.20508">
        <ele>118</ele>
        <time>2009-03-19T10:11:31Z</time>
      </trkpt>
      <trkpt lat="46.2994" lon="-0.20553">
        <ele>116</ele>
        <time>2009-03-19T10:11:36Z</time>
      </trkpt>
      <trkpt lat="46.29959" lon="-0.20586">
        <ele>112</ele>
        <time>2009-03-19T10:11:41Z</time>
      </trkpt>
      <trkpt lat="46.29975" lon="-0.2062">
        <ele>111</ele>
        <time>2009-03-19T10:11:46Z</time>
      </trkpt>
      <trkpt lat="46.30003" lon="-0.20614">
        <ele>114</ele>
        <time>2009-03-19T10:11:51Z</time>
      </trkpt>
      <trkpt lat="46.30021" lon="-0.20597">
        <ele>115</ele>
        <time>2009-03-19T10:11:56Z</time>
      </trkpt>
      <trkpt lat="46.30045" lon="-0.20585">
        <ele>115</ele>
        <time>2009-03-19T10:12:01Z</time>
      </trkpt>
      <trkpt lat="46.3007" lon="-0.20573">
        <ele>116</ele>
        <time>2009-03-19T10:12:06Z</time>
      </trkpt>
      <trkpt lat="46.30095" lon="-0.2056">
        <ele>117</ele>
        <time>2009-03-19T10:12:11Z</time>
      </trkpt>
      <trkpt lat="46.3012" lon="-0.2056">
        <ele>117</ele>
        <time>2009-03-19T10:12:16Z</time>
      </trkpt>
      <trkpt lat="46.30133" lon="-0.20589">
        <ele>119</ele>
        <time>2009-03-19T10:12:21Z</time>
      </trkpt>
      <trkpt lat="46.30122" lon="-0.20616">
        <ele>119</ele>
        <time>2009-03-19T10:12:26Z</time>
      </trkpt>
      <trkpt lat="46.30103" lon="-0.20638">
        <ele>119</ele>
        <time>2009-03-19T10:12:31Z</time>
      </trkpt>
      <trkpt lat="46.30077" lon="-0.20665">
        <ele>117</ele>
        <time>2009-03-19T10:12:36Z</time>
      </trkpt>
      <trkpt lat="46.30053" lon="-0.20696">
        <ele>116</ele>
        <time>2009-03-19T10:12:41Z</time>
      </trkpt>
      <trkpt lat="46.30042" lon="-0.20735">
        <ele>116</ele>
        <time>2009-03-19T10:12:46Z</time>
      </trkpt>
      <trkpt lat="46.30046" lon="-0.20763">
        <ele>118</ele>
        <time>2009-03-19T10:12:51Z</time>
      </trkpt>
      <trkpt lat="46.30061" lon="-0.20771">
        <ele>120</ele>
        <time>2009-03-19T10:12:56Z</time>
      </trkpt>
      <trkpt lat="46.3007" lon="-0.20788">
        <ele>120</ele>
        <time>2009-03-19T10:13:01Z</time>
      </trkpt>
      <trkpt lat="46.30073" lon="-0.20811">
        <ele>121</ele>
        <time>2009-03-19T10:13:06Z</time>
      </trkpt>
      <trkpt lat="46.3007" lon="-0.20831">
        <ele>122</ele>
        <time>2009-03-19T10:13:11Z</time>
      </trkpt>
      <trkpt lat="46.30066" lon="-0.20849">
        <ele>123</ele>
        <time>2009-03-19T10:13:16Z</time>
      </trkpt>
      <trkpt lat="46.30064" lon="-0.20868">
        <ele>122</ele>
        <time>2009-03-19T10:13:21Z</time>
      </trkpt>
      <trkpt lat="46.30063" lon="-0.20886">
        <ele>123</ele>
        <time>2009-03-19T10:13:26Z</time>
      </trkpt>
      <trkpt lat="46.30061" lon="-0.20891">
        <ele>123</ele>
        <time>2009-03-19T10:13:31Z</time>
      </trkpt>
      <trkpt lat="46.30061" lon="-0.20889">
        <ele>123</ele>
        <time>2009-03-19T10:13:36Z</time>
      </trkpt>
      <trkpt lat="46.30061" lon="-0.20889">
        <ele>123</ele>
        <time>2009-03-19T10:13:41Z</time>
      </trkpt>
      <trkpt lat="46.30061" lon="-0.20889">
        <ele>123</ele>
        <time>2009-03-19T10:13:43Z</time>
      </trkpt>
      <trkpt lat="46.30066" lon="-0.20892">
        <ele>123</ele>
        <time>2009-03-19T10:20:45Z</time>
      </trkpt>
      <trkpt lat="46.30067" lon="-0.20892">
        <ele>123</ele>
        <time>2009-03-19T10:20:50Z</time>
      </trkpt>
      <trkpt lat="46.30065" lon="-0.20897">
        <ele>124</ele>
        <time>2009-03-19T10:20:55Z</time>
      </trkpt>
      <trkpt lat="46.30065" lon="-0.20898">
        <ele>124</ele>
        <time>2009-03-19T10:21:00Z</time>
      </trkpt>
      <trkpt lat="46.30065" lon="-0.20898">
        <ele>124</ele>
        <time>2009-03-19T10:21:05Z</time>
      </trkpt>
      <trkpt lat="46.30065" lon="-0.20899">
        <ele>124</ele>
        <time>2009-03-19T10:21:10Z</time>
      </trkpt>
      <trkpt lat="46.30066" lon="-0.20898">
        <ele>124</ele>
        <time>2009-03-19T10:21:15Z</time>
      </trkpt>
      <trkpt lat="46.30067" lon="-0.20899">
        <ele>124</ele>
        <time>2009-03-19T10:21:20Z</time>
      </trkpt>
      <trkpt lat="46.30069" lon="-0.20901">
        <ele>124</ele>
        <time>2009-03-19T10:21:25Z</time>
      </trkpt>
      <trkpt lat="46.30068" lon="-0.20906">
        <ele>124</ele>
        <time>2009-03-19T10:21:30Z</time>
      </trkpt>
      <trkpt lat="46.30061" lon="-0.20916">
        <ele>124</ele>
        <time>2009-03-19T10:21:35Z</time>
      </trkpt>
      <trkpt lat="46.30051" lon="-0.20928">
        <ele>126</ele>
        <time>2009-03-19T10:21:40Z</time>
      </trkpt>
      <trkpt lat="46.30041" lon="-0.20944">
        <ele>125</ele>
        <time>2009-03-19T10:21:45Z</time>
      </trkpt>
      <trkpt lat="46.3003" lon="-0.20964">
        <ele>125</ele>
        <time>2009-03-19T10:21:50Z</time>
      </trkpt>
      <trkpt lat="46.30016" lon="-0.20987">
        <ele>124</ele>
        <time>2009-03-19T10:21:55Z</time>
      </trkpt>
      <trkpt lat="46.30001" lon="-0.21015">
        <ele>126</ele>
        <time>2009-03-19T10:22:00Z</time>
      </trkpt>
      <trkpt lat="46.29986" lon="-0.21043">
        <ele>122</ele>
        <time>2009-03-19T10:22:05Z</time>
      </trkpt>
      <trkpt lat="46.29969" lon="-0.21073">
        <ele>122</ele>
        <time>2009-03-19T10:22:10Z</time>
      </trkpt>
      <trkpt lat="46.29956" lon="-0.211">
        <ele>126</ele>
        <time>2009-03-19T10:22:15Z</time>
      </trkpt>
      <trkpt lat="46.29941" lon="-0.21128">
        <ele>126</ele>
        <time>2009-03-19T10:22:20Z</time>
      </trkpt>
      <trkpt lat="46.29932" lon="-0.21162">
        <ele>126</ele>
        <time>2009-03-19T10:22:25Z</time>
      </trkpt>
      <trkpt lat="46.29927" lon="-0.21194">
        <ele>129</ele>
        <time>2009-03-19T10:22:30Z</time>
      </trkpt>
      <trkpt lat="46.29935" lon="-0.21216">
        <ele>130</ele>
        <time>2009-03-19T10:22:35Z</time>
      </trkpt>
      <trkpt lat="46.29949" lon="-0.21232">
        <ele>131</ele>
        <time>2009-03-19T10:22:40Z</time>
      </trkpt>
      <trkpt lat="46.29959" lon="-0.2125">
        <ele>131</ele>
        <time>2009-03-19T10:22:45Z</time>
      </trkpt>
      <trkpt lat="46.29968" lon="-0.21269">
        <ele>133</ele>
        <time>2009-03-19T10:22:50Z</time>
      </trkpt>
      <trkpt lat="46.29973" lon="-0.2129">
        <ele>134</ele>
        <time>2009-03-19T10:22:55Z</time>
      </trkpt>
      <trkpt lat="46.29979" lon="-0.2131">
        <ele>135</ele>
        <time>2009-03-19T10:23:00Z</time>
      </trkpt>
      <trkpt lat="46.29989" lon="-0.21324">
        <ele>136</ele>
        <time>2009-03-19T10:23:05Z</time>
      </trkpt>
      <trkpt lat="46.29997" lon="-0.21336">
        <ele>137</ele>
        <time>2009-03-19T10:23:10Z</time>
      </trkpt>
      <trkpt lat="46.29988" lon="-0.21351">
        <ele>136</ele>
        <time>2009-03-19T10:23:15Z</time>
      </trkpt>
      <trkpt lat="46.29962" lon="-0.21365">
        <ele>134</ele>
        <time>2009-03-19T10:23:20Z</time>
      </trkpt>
      <trkpt lat="46.29953" lon="-0.21406">
        <ele>134</ele>
        <time>2009-03-19T10:23:25Z</time>
      </trkpt>
      <trkpt lat="46.2995" lon="-0.21443">
        <ele>134</ele>
        <time>2009-03-19T10:23:30Z</time>
      </trkpt>
      <trkpt lat="46.29951" lon="-0.21477">
        <ele>134</ele>
        <time>2009-03-19T10:23:35Z</time>
      </trkpt>
      <trkpt lat="46.29951" lon="-0.21509">
        <ele>135</ele>
        <time>2009-03-19T10:23:40Z</time>
      </trkpt>
      <trkpt lat="46.29949" lon="-0.2154">
        <ele>135</ele>
        <time>2009-03-19T10:23:45Z</time>
      </trkpt>
      <trkpt lat="46.29948" lon="-0.21569">
        <ele>135</ele>
        <time>2009-03-19T10:23:50Z</time>
      </trkpt>
      <trkpt lat="46.29947" lon="-0.21598">
        <ele>136</ele>
        <time>2009-03-19T10:23:55Z</time>
      </trkpt>
      <trkpt lat="46.29945" lon="-0.21627">
        <ele>137</ele>
        <time>2009-03-19T10:24:00Z</time>
      </trkpt>
      <trkpt lat="46.29942" lon="-0.21656">
        <ele>137</ele>
        <time>2009-03-19T10:24:05Z</time>
      </trkpt>
      <trkpt lat="46.29938" lon="-0.21685">
        <ele>138</ele>
        <time>2009-03-19T10:24:10Z</time>
      </trkpt>
      <trkpt lat="46.29934" lon="-0.2171">
        <ele>138</ele>
        <time>2009-03-19T10:24:15Z</time>
      </trkpt>
      <trkpt lat="46.2993" lon="-0.2173">
        <ele>138</ele>
        <time>2009-03-19T10:24:20Z</time>
      </trkpt>
      <trkpt lat="46.29932" lon="-0.21737">
        <ele>139</ele>
        <time>2009-03-19T10:24:25Z</time>
      </trkpt>
      <trkpt lat="46.29933" lon="-0.21736">
        <ele>139</ele>
        <time>2009-03-19T10:24:30Z</time>
      </trkpt>
      <trkpt lat="46.29938" lon="-0.21741">
        <ele>139</ele>
        <time>2009-03-19T10:24:35Z</time>
      </trkpt>
      <trkpt lat="46.29949" lon="-0.21737">
        <ele>139</ele>
        <time>2009-03-19T10:24:40Z</time>
      </trkpt>
      <trkpt lat="46.29962" lon="-0.21729">
        <ele>139</ele>
        <time>2009-03-19T10:24:45Z</time>
      </trkpt>
      <trkpt lat="46.29973" lon="-0.21721">
        <ele>140</ele>
        <time>2009-03-19T10:24:50Z</time>
      </trkpt>
      <trkpt lat="46.29986" lon="-0.21716">
        <ele>140</ele>
        <time>2009-03-19T10:24:55Z</time>
      </trkpt>
      <trkpt lat="46.3" lon="-0.21711">
        <ele>140</ele>
        <time>2009-03-19T10:25:00Z</time>
      </trkpt>
      <trkpt lat="46.30012" lon="-0.21704">
        <ele>142</ele>
        <time>2009-03-19T10:25:05Z</time>
      </trkpt>
      <trkpt lat="46.30026" lon="-0.21695">
        <ele>142</ele>
        <time>2009-03-19T10:25:10Z</time>
      </trkpt>
      <trkpt lat="46.30042" lon="-0.21691">
        <ele>142</ele>
        <time>2009-03-19T10:25:15Z</time>
      </trkpt>
      <trkpt lat="46.30057" lon="-0.2168">
        <ele>142</ele>
        <time>2009-03-19T10:25:20Z</time>
      </trkpt>
      <trkpt lat="46.30073" lon="-0.21669">
        <ele>143</ele>
        <time>2009-03-19T10:25:25Z</time>
      </trkpt>
      <trkpt lat="46.30088" lon="-0.21656">
        <ele>143</ele>
        <time>2009-03-19T10:25:30Z</time>
      </trkpt>
      <trkpt lat="46.30105" lon="-0.21643">
        <ele>143</ele>
        <time>2009-03-19T10:25:35Z</time>
      </trkpt>
      <trkpt lat="46.30126" lon="-0.21635">
        <ele>143</ele>
        <time>2009-03-19T10:25:40Z</time>
      </trkpt>
      <trkpt lat="46.30149" lon="-0.21653">
        <ele>142</ele>
        <time>2009-03-19T10:25:45Z</time>
      </trkpt>
      <trkpt lat="46.30175" lon="-0.21678">
        <ele>141</ele>
        <time>2009-03-19T10:25:50Z</time>
      </trkpt>
      <trkpt lat="46.302" lon="-0.21702">
        <ele>141</ele>
        <time>2009-03-19T10:25:55Z</time>
      </trkpt>
      <trkpt lat="46.30227" lon="-0.21726">
        <ele>141</ele>
        <time>2009-03-19T10:26:00Z</time>
      </trkpt>
      <trkpt lat="46.30249" lon="-0.21756">
        <ele>141</ele>
        <time>2009-03-19T10:26:05Z</time>
      </trkpt>
      <trkpt lat="46.30268" lon="-0.21788">
        <ele>141</ele>
        <time>2009-03-19T10:26:10Z</time>
      </trkpt>
      <trkpt lat="46.30285" lon="-0.21822">
        <ele>140</ele>
        <time>2009-03-19T10:26:15Z</time>
      </trkpt>
      <trkpt lat="46.30301" lon="-0.21859">
        <ele>140</ele>
        <time>2009-03-19T10:26:20Z</time>
      </trkpt>
      <trkpt lat="46.30315" lon="-0.21897">
        <ele>140</ele>
        <time>2009-03-19T10:26:25Z</time>
      </trkpt>
      <trkpt lat="46.30328" lon="-0.21935">
        <ele>139</ele>
        <time>2009-03-19T10:26:30Z</time>
      </trkpt>
      <trkpt lat="46.30333" lon="-0.21976">
        <ele>139</ele>
        <time>2009-03-19T10:26:35Z</time>
      </trkpt>
      <trkpt lat="46.30324" lon="-0.22025">
        <ele>138</ele>
        <time>2009-03-19T10:26:40Z</time>
      </trkpt>
      <trkpt lat="46.30319" lon="-0.22069">
        <ele>137</ele>
        <time>2009-03-19T10:26:45Z</time>
      </trkpt>
      <trkpt lat="46.30325" lon="-0.22088">
        <ele>137</ele>
        <time>2009-03-19T10:26:50Z</time>
      </trkpt>
      <trkpt lat="46.30343" lon="-0.2209">
        <ele>138</ele>
        <time>2009-03-19T10:26:55Z</time>
      </trkpt>
      <trkpt lat="46.30362" lon="-0.22088">
        <ele>138</ele>
        <time>2009-03-19T10:27:00Z</time>
      </trkpt>
      <trkpt lat="46.30383" lon="-0.22089">
        <ele>139</ele>
        <time>2009-03-19T10:27:05Z</time>
      </trkpt>
      <trkpt lat="46.30403" lon="-0.22091">
        <ele>139</ele>
        <time>2009-03-19T10:27:10Z</time>
      </trkpt>
      <trkpt lat="46.30423" lon="-0.22093">
        <ele>139</ele>
        <time>2009-03-19T10:27:15Z</time>
      </trkpt>
      <trkpt lat="46.30436" lon="-0.22101">
        <ele>139</ele>
        <time>2009-03-19T10:27:20Z</time>
      </trkpt>
      <trkpt lat="46.30459" lon="-0.22112">
        <ele>138</ele>
        <time>2009-03-19T10:27:25Z</time>
      </trkpt>
      <trkpt lat="46.30487" lon="-0.22122">
        <ele>138</ele>
        <time>2009-03-19T10:27:30Z</time>
      </trkpt>
      <trkpt lat="46.30514" lon="-0.22129">
        <ele>136</ele>
        <time>2009-03-19T10:27:35Z</time>
      </trkpt>
      <trkpt lat="46.30541" lon="-0.22135">
        <ele>135</ele>
        <time>2009-03-19T10:27:40Z</time>
      </trkpt>
      <trkpt lat="46.3056" lon="-0.22112">
        <ele>135</ele>
        <time>2009-03-19T10:27:45Z</time>
      </trkpt>
      <trkpt lat="46.30592" lon="-0.2211">
        <ele>133</ele>
        <time>2009-03-19T10:27:50Z</time>
      </trkpt>
      <trkpt lat="46.30628" lon="-0.22114">
        <ele>132</ele>
        <time>2009-03-19T10:27:55Z</time>
      </trkpt>
      <trkpt lat="46.30665" lon="-0.22111">
        <ele>132</ele>
        <time>2009-03-19T10:28:00Z</time>
      </trkpt>
      <trkpt lat="46.30692" lon="-0.22119">
        <ele>133</ele>
        <time>2009-03-19T10:28:05Z</time>
      </trkpt>
      <trkpt lat="46.30712" lon="-0.22136">
        <ele>134</ele>
        <time>2009-03-19T10:28:10Z</time>
      </trkpt>
      <trkpt lat="46.30736" lon="-0.22134">
        <ele>134</ele>
        <time>2009-03-19T10:28:15Z</time>
      </trkpt>
      <trkpt lat="46.30758" lon="-0.22129">
        <ele>137</ele>
        <time>2009-03-19T10:28:20Z</time>
      </trkpt>
      <trkpt lat="46.30781" lon="-0.22126">
        <ele>138</ele>
        <time>2009-03-19T10:28:25Z</time>
      </trkpt>
      <trkpt lat="46.30803" lon="-0.22128">
        <ele>139</ele>
        <time>2009-03-19T10:28:30Z</time>
      </trkpt>
      <trkpt lat="46.30821" lon="-0.22131">
        <ele>139</ele>
        <time>2009-03-19T10:28:35Z</time>
      </trkpt>
      <trkpt lat="46.30841" lon="-0.22131">
        <ele>142</ele>
        <time>2009-03-19T10:28:40Z</time>
      </trkpt>
      <trkpt lat="46.3085" lon="-0.22143">
        <ele>142</ele>
        <time>2009-03-19T10:28:45Z</time>
      </trkpt>
    </trkseg>
  </trk>
</gpx>